<?xml version="1.0" encoding="UTF-8" standalone="no" ?>
<gpx xmlns="http://www.topografix.com/GPX/1/1" xmlns:xsi="http://www.w3.org/2001/XMLSchema-instance" xsi:schemaLocation="http://www.topografix.com/GPX/1/1 http://www.topografix.com/GPX/1/1/gpx.xsd" version="1.1" creator="VisuGPX - https://www.visugpx.com">
  <metadata>
    <name>Boucle Cabrespine-Roc du Tonnerre-Mont Péril-Castans-Serremijeanne</name>
  </metadata>
  <trk>
    <name><![CDATA[Boucle Cabrespine-Roc du Tonnerre-Mont Péril-Castans-Serremijeanne]]></name>
    <extensions>
      <line xmlns="http://www.topografix.com/GPX/gpx_style/0/2">
        <color>0000FF</color>
        <width>4</width>
      </line>
    </extensions>
    <trkseg>
      <trkpt lat="43.36294" lon="2.46094">
        <ele>314.3</ele>
        <time>2021-09-02T06:54:00Z</time>
      </trkpt>
      <trkpt lat="43.36292" lon="2.46075">
        <ele>314.2</ele>
      </trkpt>
      <trkpt lat="43.36294" lon="2.46094">
        <ele>314.3</ele>
        <time>2021-09-02T06:54:00Z</time>
      </trkpt>
      <trkpt lat="43.36275" lon="2.461">
        <ele>313.3</ele>
      </trkpt>
      <trkpt lat="43.36243" lon="2.46087">
        <ele>309.7</ele>
        <time>2021-09-02T06:54:06Z</time>
      </trkpt>
      <trkpt lat="43.36213" lon="2.46088">
        <ele>307.2</ele>
        <time>2021-09-02T06:55:26Z</time>
      </trkpt>
      <trkpt lat="43.36179" lon="2.46096">
        <ele>304.5</ele>
        <time>2021-09-02T06:55:56Z</time>
      </trkpt>
      <trkpt lat="43.36142" lon="2.46098">
        <ele>302.4</ele>
        <time>2021-09-02T06:56:26Z</time>
      </trkpt>
      <trkpt lat="43.36113" lon="2.46108">
        <ele>301.5</ele>
        <time>2021-09-02T06:56:56Z</time>
      </trkpt>
      <trkpt lat="43.36073" lon="2.46121">
        <ele>300.4</ele>
        <time>2021-09-02T06:57:26Z</time>
      </trkpt>
      <trkpt lat="43.36034" lon="2.46134">
        <ele>300.4</ele>
        <time>2021-09-02T06:57:56Z</time>
      </trkpt>
      <trkpt lat="43.35995" lon="2.46143">
        <ele>300.5</ele>
        <time>2021-09-02T06:58:26Z</time>
      </trkpt>
      <trkpt lat="43.35957" lon="2.46152">
        <ele>301</ele>
        <time>2021-09-02T06:58:56Z</time>
      </trkpt>
      <trkpt lat="43.35918" lon="2.46154">
        <ele>301.4</ele>
        <time>2021-09-02T06:59:26Z</time>
      </trkpt>
      <trkpt lat="43.35913" lon="2.46202">
        <ele>303.1</ele>
        <time>2021-09-02T06:59:56Z</time>
      </trkpt>
      <trkpt lat="43.35923" lon="2.46247">
        <ele>304.8</ele>
        <time>2021-09-02T07:00:26Z</time>
      </trkpt>
      <trkpt lat="43.35914" lon="2.46283">
        <ele>307.3</ele>
        <time>2021-09-02T07:00:57Z</time>
      </trkpt>
      <trkpt lat="43.35876" lon="2.46297">
        <ele>307.5</ele>
        <time>2021-09-02T07:01:27Z</time>
      </trkpt>
      <trkpt lat="43.35841" lon="2.46316">
        <ele>308.5</ele>
        <time>2021-09-02T07:01:57Z</time>
      </trkpt>
      <trkpt lat="43.35805" lon="2.46337">
        <ele>309.4</ele>
        <time>2021-09-02T07:02:27Z</time>
      </trkpt>
      <trkpt lat="43.35724" lon="2.46376">
        <ele>310.4</ele>
        <time>2021-09-02T07:03:33Z</time>
      </trkpt>
      <trkpt lat="43.35682" lon="2.46394">
        <ele>310.4</ele>
        <time>2021-09-02T07:04:00Z</time>
      </trkpt>
      <trkpt lat="43.35686" lon="2.46394">
        <ele>310.6</ele>
        <time>2021-09-02T07:04:03Z</time>
      </trkpt>
      <trkpt lat="43.35682" lon="2.46396">
        <ele>310.6</ele>
        <time>2021-09-02T07:04:06Z</time>
      </trkpt>
      <trkpt lat="43.35652" lon="2.46419">
        <ele>312.6</ele>
        <time>2021-09-02T07:04:34Z</time>
      </trkpt>
      <trkpt lat="43.35618" lon="2.46442">
        <ele>316.5</ele>
        <time>2021-09-02T07:05:08Z</time>
      </trkpt>
      <trkpt lat="43.35583" lon="2.46463">
        <ele>319.8</ele>
        <time>2021-09-02T07:05:38Z</time>
      </trkpt>
      <trkpt lat="43.35552" lon="2.46489">
        <ele>324.2</ele>
        <time>2021-09-02T07:06:08Z</time>
      </trkpt>
      <trkpt lat="43.35527" lon="2.46523">
        <ele>331.7</ele>
        <time>2021-09-02T07:06:38Z</time>
      </trkpt>
      <trkpt lat="43.35505" lon="2.46556">
        <ele>338.3</ele>
        <time>2021-09-02T07:07:08Z</time>
      </trkpt>
      <trkpt lat="43.35473" lon="2.4655">
        <ele>338.7</ele>
        <time>2021-09-02T07:07:38Z</time>
      </trkpt>
      <trkpt lat="43.35442" lon="2.46545">
        <ele>340.3</ele>
        <time>2021-09-02T07:08:08Z</time>
      </trkpt>
      <trkpt lat="43.35412" lon="2.46538">
        <ele>340.8</ele>
        <time>2021-09-02T07:08:38Z</time>
      </trkpt>
      <trkpt lat="43.35384" lon="2.46535">
        <ele>344.3</ele>
        <time>2021-09-02T07:09:08Z</time>
      </trkpt>
      <trkpt lat="43.35353" lon="2.4654">
        <ele>351.8</ele>
        <time>2021-09-02T07:09:38Z</time>
      </trkpt>
      <trkpt lat="43.35345" lon="2.46544">
        <ele>355.1</ele>
        <time>2021-09-02T07:10:08Z</time>
      </trkpt>
      <trkpt lat="43.35313" lon="2.4654">
        <ele>358.6</ele>
        <time>2021-09-02T07:10:40Z</time>
      </trkpt>
      <trkpt lat="43.35309" lon="2.46541">
        <ele>359.8</ele>
        <time>2021-09-02T07:11:10Z</time>
      </trkpt>
      <trkpt lat="43.35286" lon="2.46533">
        <ele>359.9</ele>
        <time>2021-09-02T07:11:40Z</time>
      </trkpt>
      <trkpt lat="43.35255" lon="2.46532">
        <ele>364.9</ele>
        <time>2021-09-02T07:12:10Z</time>
      </trkpt>
      <trkpt lat="43.35256" lon="2.46536">
        <ele>366.5</ele>
        <time>2021-09-02T07:12:40Z</time>
      </trkpt>
      <trkpt lat="43.35256" lon="2.46532">
        <ele>364.8</ele>
        <time>2021-09-02T07:13:10Z</time>
      </trkpt>
      <trkpt lat="43.35253" lon="2.4653">
        <ele>364.4</ele>
        <time>2021-09-02T07:13:40Z</time>
      </trkpt>
      <trkpt lat="43.35244" lon="2.46529">
        <ele>364.6</ele>
        <time>2021-09-02T07:14:00Z</time>
      </trkpt>
      <trkpt lat="43.35244" lon="2.4653">
        <ele>365.1</ele>
        <time>2021-09-02T07:14:07Z</time>
      </trkpt>
      <trkpt lat="43.35242" lon="2.46531">
        <ele>365.5</ele>
        <time>2021-09-02T07:14:10Z</time>
      </trkpt>
      <trkpt lat="43.3521" lon="2.4653">
        <ele>365.6</ele>
        <time>2021-09-02T07:14:40Z</time>
      </trkpt>
      <trkpt lat="43.35182" lon="2.46545">
        <ele>372.7</ele>
        <time>2021-09-02T07:15:10Z</time>
      </trkpt>
      <trkpt lat="43.35156" lon="2.46572">
        <ele>387.6</ele>
        <time>2021-09-02T07:15:40Z</time>
      </trkpt>
      <trkpt lat="43.35134" lon="2.46596">
        <ele>402.4</ele>
        <time>2021-09-02T07:16:10Z</time>
      </trkpt>
      <trkpt lat="43.35107" lon="2.46577">
        <ele>401.7</ele>
        <time>2021-09-02T07:16:40Z</time>
      </trkpt>
      <trkpt lat="43.35082" lon="2.46549">
        <ele>396.4</ele>
        <time>2021-09-02T07:17:10Z</time>
      </trkpt>
      <trkpt lat="43.35057" lon="2.46518">
        <ele>391.8</ele>
        <time>2021-09-02T07:17:40Z</time>
      </trkpt>
      <trkpt lat="43.3503" lon="2.46493">
        <ele>389</ele>
        <time>2021-09-02T07:18:10Z</time>
      </trkpt>
      <trkpt lat="43.34995" lon="2.46498">
        <ele>401.7</ele>
        <time>2021-09-02T07:18:40Z</time>
      </trkpt>
      <trkpt lat="43.34964" lon="2.46519">
        <ele>415.1</ele>
        <time>2021-09-02T07:19:10Z</time>
      </trkpt>
      <trkpt lat="43.34935" lon="2.46534">
        <ele>424.9</ele>
        <time>2021-09-02T07:19:40Z</time>
      </trkpt>
      <trkpt lat="43.34875" lon="2.46484">
        <ele>420.4</ele>
        <time>2021-09-02T07:20:47Z</time>
      </trkpt>
      <trkpt lat="43.34865" lon="2.4648">
        <ele>421.8</ele>
        <time>2021-09-02T07:21:47Z</time>
      </trkpt>
      <trkpt lat="43.34828" lon="2.4646">
        <ele>424.4</ele>
        <time>2021-09-02T07:22:18Z</time>
      </trkpt>
      <trkpt lat="43.34794" lon="2.46447">
        <ele>429.5</ele>
        <time>2021-09-02T07:22:48Z</time>
      </trkpt>
      <trkpt lat="43.34756" lon="2.46426">
        <ele>432.3</ele>
        <time>2021-09-02T07:23:20Z</time>
      </trkpt>
      <trkpt lat="43.34726" lon="2.46403">
        <ele>435.4</ele>
        <time>2021-09-02T07:23:50Z</time>
      </trkpt>
      <trkpt lat="43.34708" lon="2.46384">
        <ele>437.6</ele>
        <time>2021-09-02T07:24:00Z</time>
      </trkpt>
      <trkpt lat="43.34709" lon="2.46386">
        <ele>437.7</ele>
        <time>2021-09-02T07:24:08Z</time>
      </trkpt>
      <trkpt lat="43.34697" lon="2.46371">
        <ele>439.1</ele>
        <time>2021-09-02T07:24:20Z</time>
      </trkpt>
      <trkpt lat="43.34676" lon="2.46326">
        <ele>439.3</ele>
        <time>2021-09-02T07:24:50Z</time>
      </trkpt>
      <trkpt lat="43.3466" lon="2.46278">
        <ele>442.3</ele>
        <time>2021-09-02T07:25:20Z</time>
      </trkpt>
      <trkpt lat="43.34647" lon="2.46228">
        <ele>442</ele>
        <time>2021-09-02T07:25:50Z</time>
      </trkpt>
      <trkpt lat="43.34632" lon="2.46182">
        <ele>440.9</ele>
        <time>2021-09-02T07:26:20Z</time>
      </trkpt>
      <trkpt lat="43.34605" lon="2.46146">
        <ele>442.4</ele>
        <time>2021-09-02T07:26:50Z</time>
      </trkpt>
      <trkpt lat="43.34571" lon="2.46124">
        <ele>444.7</ele>
        <time>2021-09-02T07:27:20Z</time>
      </trkpt>
      <trkpt lat="43.34535" lon="2.46131">
        <ele>451.8</ele>
        <time>2021-09-02T07:27:50Z</time>
      </trkpt>
      <trkpt lat="43.34501" lon="2.46124">
        <ele>453.5</ele>
        <time>2021-09-02T07:28:20Z</time>
      </trkpt>
      <trkpt lat="43.3444" lon="2.46119">
        <ele>457.1</ele>
        <time>2021-09-02T07:29:39Z</time>
      </trkpt>
      <trkpt lat="43.34402" lon="2.46131">
        <ele>460.3</ele>
        <time>2021-09-02T07:30:09Z</time>
      </trkpt>
      <trkpt lat="43.34388" lon="2.46145">
        <ele>460.8</ele>
        <time>2021-09-02T07:30:41Z</time>
      </trkpt>
      <trkpt lat="43.34385" lon="2.46157">
        <ele>462</ele>
        <time>2021-09-02T07:31:12Z</time>
      </trkpt>
      <trkpt lat="43.34417" lon="2.4617">
        <ele>469.4</ele>
        <time>2021-09-02T07:31:42Z</time>
      </trkpt>
      <trkpt lat="43.34384" lon="2.46165">
        <ele>462.8</ele>
        <time>2021-09-02T07:32:12Z</time>
      </trkpt>
      <trkpt lat="43.34381" lon="2.46182">
        <ele>463.6</ele>
        <time>2021-09-02T07:32:42Z</time>
      </trkpt>
      <trkpt lat="43.34386" lon="2.46228">
        <ele>467.9</ele>
        <time>2021-09-02T07:33:12Z</time>
      </trkpt>
      <trkpt lat="43.34393" lon="2.46276">
        <ele>471.3</ele>
        <time>2021-09-02T07:33:42Z</time>
      </trkpt>
      <trkpt lat="43.34404" lon="2.46315">
        <ele>474.3</ele>
        <time>2021-09-02T07:34:00Z</time>
      </trkpt>
      <trkpt lat="43.34404" lon="2.46316">
        <ele>474.3</ele>
        <time>2021-09-02T07:34:09Z</time>
      </trkpt>
      <trkpt lat="43.34406" lon="2.46322">
        <ele>474.8</ele>
        <time>2021-09-02T07:34:12Z</time>
      </trkpt>
      <trkpt lat="43.34416" lon="2.46371">
        <ele>476.5</ele>
        <time>2021-09-02T07:34:42Z</time>
      </trkpt>
      <trkpt lat="43.34432" lon="2.46416">
        <ele>478.9</ele>
        <time>2021-09-02T07:35:12Z</time>
      </trkpt>
      <trkpt lat="43.34443" lon="2.46454">
        <ele>481.2</ele>
        <time>2021-09-02T07:35:43Z</time>
      </trkpt>
      <trkpt lat="43.34447" lon="2.46475">
        <ele>481.9</ele>
        <time>2021-09-02T07:36:13Z</time>
      </trkpt>
      <trkpt lat="43.34454" lon="2.46513">
        <ele>484</ele>
        <time>2021-09-02T07:36:43Z</time>
      </trkpt>
      <trkpt lat="43.34458" lon="2.46541">
        <ele>486.4</ele>
        <time>2021-09-02T07:37:13Z</time>
      </trkpt>
      <trkpt lat="43.34465" lon="2.46591">
        <ele>490.3</ele>
        <time>2021-09-02T07:37:43Z</time>
      </trkpt>
      <trkpt lat="43.34472" lon="2.46639">
        <ele>493.4</ele>
        <time>2021-09-02T07:38:13Z</time>
      </trkpt>
      <trkpt lat="43.34475" lon="2.46678">
        <ele>495.1</ele>
      </trkpt>
      <trkpt lat="43.34486" lon="2.46671">
        <ele>497.7</ele>
        <time>2021-09-02T07:38:43Z</time>
      </trkpt>
      <trkpt lat="43.34513" lon="2.46648">
        <ele>502.9</ele>
        <time>2021-09-02T07:39:13Z</time>
      </trkpt>
      <trkpt lat="43.34538" lon="2.46637">
        <ele>507.2</ele>
        <time>2021-09-02T07:39:43Z</time>
      </trkpt>
      <trkpt lat="43.34551" lon="2.46632">
        <ele>509.4</ele>
      </trkpt>
      <trkpt lat="43.34568" lon="2.46663">
        <ele>514.6</ele>
        <time>2021-09-02T07:40:13Z</time>
      </trkpt>
      <trkpt lat="43.34614" lon="2.46683">
        <ele>523.2</ele>
        <time>2021-09-02T07:41:28Z</time>
      </trkpt>
      <trkpt lat="43.34639" lon="2.46694">
        <ele>527.6</ele>
        <time>2021-09-02T07:41:58Z</time>
      </trkpt>
      <trkpt lat="43.34665" lon="2.46702">
        <ele>532.1</ele>
        <time>2021-09-02T07:42:28Z</time>
      </trkpt>
      <trkpt lat="43.3469" lon="2.46725">
        <ele>535.4</ele>
        <time>2021-09-02T07:42:58Z</time>
      </trkpt>
      <trkpt lat="43.34714" lon="2.46755">
        <ele>540.8</ele>
        <time>2021-09-02T07:43:28Z</time>
      </trkpt>
      <trkpt lat="43.34747" lon="2.4677">
        <ele>544.4</ele>
        <time>2021-09-02T07:43:59Z</time>
      </trkpt>
      <trkpt lat="43.34756" lon="2.46776">
        <ele>544.1</ele>
        <time>2021-09-02T07:44:00Z</time>
      </trkpt>
      <trkpt lat="43.34756" lon="2.46778">
        <ele>544.3</ele>
        <time>2021-09-02T07:44:09Z</time>
      </trkpt>
      <trkpt lat="43.34775" lon="2.46799">
        <ele>543.5</ele>
        <time>2021-09-02T07:44:29Z</time>
      </trkpt>
      <trkpt lat="43.34785" lon="2.46813">
        <ele>544.1</ele>
        <time>2021-09-02T07:44:59Z</time>
      </trkpt>
      <trkpt lat="43.3481" lon="2.46849">
        <ele>546.6</ele>
        <time>2021-09-02T07:45:29Z</time>
      </trkpt>
      <trkpt lat="43.34844" lon="2.46879">
        <ele>548.3</ele>
        <time>2021-09-02T07:45:59Z</time>
      </trkpt>
      <trkpt lat="43.34876" lon="2.46911">
        <ele>550.7</ele>
        <time>2021-09-02T07:46:29Z</time>
      </trkpt>
      <trkpt lat="43.34909" lon="2.46943">
        <ele>551.6</ele>
        <time>2021-09-02T07:46:59Z</time>
      </trkpt>
      <trkpt lat="43.34937" lon="2.4698">
        <ele>552.9</ele>
        <time>2021-09-02T07:47:29Z</time>
      </trkpt>
      <trkpt lat="43.34963" lon="2.47018">
        <ele>554.5</ele>
        <time>2021-09-02T07:47:59Z</time>
      </trkpt>
      <trkpt lat="43.34982" lon="2.47064">
        <ele>556</ele>
        <time>2021-09-02T07:48:29Z</time>
      </trkpt>
      <trkpt lat="43.35007" lon="2.47102">
        <ele>554.4</ele>
        <time>2021-09-02T07:48:59Z</time>
      </trkpt>
      <trkpt lat="43.35045" lon="2.47107">
        <ele>552.9</ele>
        <time>2021-09-02T07:49:29Z</time>
      </trkpt>
      <trkpt lat="43.35067" lon="2.47097">
        <ele>553.3</ele>
        <time>2021-09-02T07:49:59Z</time>
      </trkpt>
      <trkpt lat="43.35118" lon="2.47087">
        <ele>550.4</ele>
      </trkpt>
      <trkpt lat="43.35173" lon="2.4709">
        <ele>545.4</ele>
        <time>2021-09-02T07:51:19Z</time>
      </trkpt>
      <trkpt lat="43.35212" lon="2.47104">
        <ele>542.5</ele>
        <time>2021-09-02T07:51:49Z</time>
      </trkpt>
      <trkpt lat="43.35253" lon="2.47124">
        <ele>540.6</ele>
        <time>2021-09-02T07:52:20Z</time>
      </trkpt>
      <trkpt lat="43.35289" lon="2.47139">
        <ele>544</ele>
        <time>2021-09-02T07:52:53Z</time>
      </trkpt>
      <trkpt lat="43.3532" lon="2.47158">
        <ele>548.5</ele>
        <time>2021-09-02T07:53:23Z</time>
      </trkpt>
      <trkpt lat="43.35355" lon="2.47175">
        <ele>553.2</ele>
        <time>2021-09-02T07:53:53Z</time>
      </trkpt>
      <trkpt lat="43.35371" lon="2.4718">
        <ele>555</ele>
        <time>2021-09-02T07:54:00Z</time>
      </trkpt>
      <trkpt lat="43.35372" lon="2.47182">
        <ele>555.3</ele>
        <time>2021-09-02T07:54:09Z</time>
      </trkpt>
      <trkpt lat="43.35389" lon="2.47187">
        <ele>557.4</ele>
        <time>2021-09-02T07:54:23Z</time>
      </trkpt>
      <trkpt lat="43.35425" lon="2.47196">
        <ele>561.8</ele>
        <time>2021-09-02T07:54:53Z</time>
      </trkpt>
      <trkpt lat="43.35463" lon="2.47203">
        <ele>565.4</ele>
        <time>2021-09-02T07:55:23Z</time>
      </trkpt>
      <trkpt lat="43.355" lon="2.47209">
        <ele>569.1</ele>
        <time>2021-09-02T07:55:53Z</time>
      </trkpt>
      <trkpt lat="43.35538" lon="2.47217">
        <ele>571.9</ele>
        <time>2021-09-02T07:56:23Z</time>
      </trkpt>
      <trkpt lat="43.35576" lon="2.47232">
        <ele>575.8</ele>
        <time>2021-09-02T07:56:54Z</time>
      </trkpt>
      <trkpt lat="43.3561" lon="2.47255">
        <ele>579.3</ele>
        <time>2021-09-02T07:57:24Z</time>
      </trkpt>
      <trkpt lat="43.35638" lon="2.47282">
        <ele>583.7</ele>
        <time>2021-09-02T07:57:54Z</time>
      </trkpt>
      <trkpt lat="43.35663" lon="2.47319">
        <ele>589.6</ele>
        <time>2021-09-02T07:58:24Z</time>
      </trkpt>
      <trkpt lat="43.35693" lon="2.4735">
        <ele>590.5</ele>
        <time>2021-09-02T07:58:55Z</time>
      </trkpt>
      <trkpt lat="43.35719" lon="2.4738">
        <ele>590.6</ele>
        <time>2021-09-02T07:59:25Z</time>
      </trkpt>
      <trkpt lat="43.35736" lon="2.47425">
        <ele>593</ele>
        <time>2021-09-02T07:59:55Z</time>
      </trkpt>
      <trkpt lat="43.35748" lon="2.4748">
        <ele>595.7</ele>
        <time>2021-09-02T08:00:25Z</time>
      </trkpt>
      <trkpt lat="43.35768" lon="2.47527">
        <ele>599</ele>
        <time>2021-09-02T08:00:55Z</time>
      </trkpt>
      <trkpt lat="43.35787" lon="2.47575">
        <ele>604.3</ele>
        <time>2021-09-02T08:01:25Z</time>
      </trkpt>
      <trkpt lat="43.35809" lon="2.47616">
        <ele>608.2</ele>
        <time>2021-09-02T08:01:55Z</time>
      </trkpt>
      <trkpt lat="43.35827" lon="2.47661">
        <ele>612</ele>
        <time>2021-09-02T08:02:25Z</time>
      </trkpt>
      <trkpt lat="43.35855" lon="2.47691">
        <ele>614.4</ele>
        <time>2021-09-02T08:02:55Z</time>
      </trkpt>
      <trkpt lat="43.35884" lon="2.47723">
        <ele>617.2</ele>
        <time>2021-09-02T08:03:25Z</time>
      </trkpt>
      <trkpt lat="43.3591" lon="2.47757">
        <ele>620.9</ele>
        <time>2021-09-02T08:03:55Z</time>
      </trkpt>
      <trkpt lat="43.35921" lon="2.47774">
        <ele>622.5</ele>
        <time>2021-09-02T08:04:00Z</time>
      </trkpt>
      <trkpt lat="43.35921" lon="2.47776">
        <ele>622.6</ele>
        <time>2021-09-02T08:04:10Z</time>
      </trkpt>
      <trkpt lat="43.35933" lon="2.47798">
        <ele>624.2</ele>
        <time>2021-09-02T08:04:25Z</time>
      </trkpt>
      <trkpt lat="43.35951" lon="2.47841">
        <ele>628.3</ele>
        <time>2021-09-02T08:04:55Z</time>
      </trkpt>
      <trkpt lat="43.35968" lon="2.47885">
        <ele>632.8</ele>
        <time>2021-09-02T08:05:25Z</time>
      </trkpt>
      <trkpt lat="43.35977" lon="2.47938">
        <ele>636.8</ele>
        <time>2021-09-02T08:05:57Z</time>
      </trkpt>
      <trkpt lat="43.35997" lon="2.47981">
        <ele>639.2</ele>
        <time>2021-09-02T08:06:27Z</time>
      </trkpt>
      <trkpt lat="43.36009" lon="2.48026">
        <ele>639.7</ele>
        <time>2021-09-02T08:06:57Z</time>
      </trkpt>
      <trkpt lat="43.36027" lon="2.48036">
        <ele>640.4</ele>
        <time>2021-09-02T08:07:27Z</time>
      </trkpt>
      <trkpt lat="43.36056" lon="2.48018">
        <ele>643.5</ele>
        <time>2021-09-02T08:07:57Z</time>
      </trkpt>
      <trkpt lat="43.36085" lon="2.4799">
        <ele>646.7</ele>
        <time>2021-09-02T08:08:27Z</time>
      </trkpt>
      <trkpt lat="43.36118" lon="2.47965">
        <ele>647.7</ele>
        <time>2021-09-02T08:08:57Z</time>
      </trkpt>
      <trkpt lat="43.36122" lon="2.47964">
        <ele>647.9</ele>
        <time>2021-09-02T08:09:32Z</time>
      </trkpt>
      <trkpt lat="43.36124" lon="2.47964">
        <ele>648</ele>
        <time>2021-09-02T08:11:54Z</time>
      </trkpt>
      <trkpt lat="43.36153" lon="2.47962">
        <ele>649.7</ele>
        <time>2021-09-02T08:12:24Z</time>
      </trkpt>
      <trkpt lat="43.36166" lon="2.47955">
        <ele>650.5</ele>
        <time>2021-09-02T08:12:54Z</time>
      </trkpt>
      <trkpt lat="43.36203" lon="2.47944">
        <ele>646.6</ele>
        <time>2021-09-02T08:13:24Z</time>
      </trkpt>
      <trkpt lat="43.36234" lon="2.47917">
        <ele>644.5</ele>
        <time>2021-09-02T08:13:54Z</time>
      </trkpt>
      <trkpt lat="43.36227" lon="2.47896">
        <ele>645.8</ele>
        <time>2021-09-02T08:14:00Z</time>
      </trkpt>
      <trkpt lat="43.36227" lon="2.47897">
        <ele>645.8</ele>
        <time>2021-09-02T08:14:10Z</time>
      </trkpt>
      <trkpt lat="43.36225" lon="2.47888">
        <ele>646.2</ele>
        <time>2021-09-02T08:14:24Z</time>
      </trkpt>
      <trkpt lat="43.36228" lon="2.47844">
        <ele>647.4</ele>
        <time>2021-09-02T08:14:54Z</time>
      </trkpt>
      <trkpt lat="43.36234" lon="2.47798">
        <ele>647.9</ele>
        <time>2021-09-02T08:15:24Z</time>
      </trkpt>
      <trkpt lat="43.36253" lon="2.47755">
        <ele>649.2</ele>
        <time>2021-09-02T08:15:54Z</time>
      </trkpt>
      <trkpt lat="43.36271" lon="2.47715">
        <ele>642.7</ele>
        <time>2021-09-02T08:16:24Z</time>
      </trkpt>
      <trkpt lat="43.36283" lon="2.47694">
        <ele>638.9</ele>
        <time>2021-09-02T08:16:54Z</time>
      </trkpt>
      <trkpt lat="43.36302" lon="2.47697">
        <ele>635.3</ele>
        <time>2021-09-02T08:17:24Z</time>
      </trkpt>
      <trkpt lat="43.36325" lon="2.47686">
        <ele>630.3</ele>
        <time>2021-09-02T08:17:54Z</time>
      </trkpt>
      <trkpt lat="43.36367" lon="2.47629">
        <ele>616.8</ele>
        <time>2021-09-02T08:19:07Z</time>
      </trkpt>
      <trkpt lat="43.36397" lon="2.47599">
        <ele>612.4</ele>
        <time>2021-09-02T08:19:37Z</time>
      </trkpt>
      <trkpt lat="43.36421" lon="2.47579">
        <ele>610.6</ele>
        <time>2021-09-02T08:20:07Z</time>
      </trkpt>
      <trkpt lat="43.36431" lon="2.47565">
        <ele>606.8</ele>
      </trkpt>
      <trkpt lat="43.36448" lon="2.47566">
        <ele>606.8</ele>
        <time>2021-09-02T08:20:37Z</time>
      </trkpt>
      <trkpt lat="43.36483" lon="2.47566">
        <ele>606.2</ele>
        <time>2021-09-02T08:21:07Z</time>
      </trkpt>
      <trkpt lat="43.36504" lon="2.47565">
        <ele>606.3</ele>
        <time>2021-09-02T08:21:37Z</time>
      </trkpt>
      <trkpt lat="43.36521" lon="2.47587">
        <ele>606.2</ele>
        <time>2021-09-02T08:22:08Z</time>
      </trkpt>
      <trkpt lat="43.36562" lon="2.4759">
        <ele>606.8</ele>
        <time>2021-09-02T08:22:39Z</time>
      </trkpt>
      <trkpt lat="43.36601" lon="2.4759">
        <ele>608</ele>
        <time>2021-09-02T08:23:09Z</time>
      </trkpt>
      <trkpt lat="43.36607" lon="2.47587">
        <ele>608.5</ele>
        <time>2021-09-02T08:25:10Z</time>
      </trkpt>
      <trkpt lat="43.36607" lon="2.47586">
        <ele>608.6</ele>
        <time>2021-09-02T08:25:41Z</time>
      </trkpt>
      <trkpt lat="43.36641" lon="2.47586">
        <ele>609.9</ele>
        <time>2021-09-02T08:29:05Z</time>
      </trkpt>
      <trkpt lat="43.36684" lon="2.47584">
        <ele>611.8</ele>
        <time>2021-09-02T08:29:39Z</time>
      </trkpt>
      <trkpt lat="43.36721" lon="2.4757">
        <ele>616.2</ele>
        <time>2021-09-02T08:30:09Z</time>
      </trkpt>
      <trkpt lat="43.36755" lon="2.47556">
        <ele>620.4</ele>
        <time>2021-09-02T08:30:39Z</time>
      </trkpt>
      <trkpt lat="43.36781" lon="2.4753">
        <ele>626.1</ele>
        <time>2021-09-02T08:31:09Z</time>
      </trkpt>
      <trkpt lat="43.36807" lon="2.475">
        <ele>629.3</ele>
        <time>2021-09-02T08:31:39Z</time>
      </trkpt>
      <trkpt lat="43.36832" lon="2.47487">
        <ele>628.1</ele>
        <time>2021-09-02T08:32:09Z</time>
      </trkpt>
      <trkpt lat="43.36822" lon="2.4746">
        <ele>627.2</ele>
        <time>2021-09-02T08:32:39Z</time>
      </trkpt>
      <trkpt lat="43.36822" lon="2.47446">
        <ele>626.6</ele>
        <time>2021-09-02T08:33:09Z</time>
      </trkpt>
      <trkpt lat="43.36854" lon="2.47468">
        <ele>626.4</ele>
        <time>2021-09-02T08:33:39Z</time>
      </trkpt>
      <trkpt lat="43.36875" lon="2.47511">
        <ele>631.2</ele>
        <time>2021-09-02T08:34:09Z</time>
      </trkpt>
      <trkpt lat="43.36882" lon="2.47531">
        <ele>633</ele>
        <time>2021-09-02T08:34:15Z</time>
      </trkpt>
      <trkpt lat="43.36883" lon="2.47533">
        <ele>633.2</ele>
        <time>2021-09-02T08:34:24Z</time>
      </trkpt>
      <trkpt lat="43.36892" lon="2.47552">
        <ele>635.8</ele>
        <time>2021-09-02T08:34:39Z</time>
      </trkpt>
      <trkpt lat="43.36904" lon="2.4759">
        <ele>641</ele>
        <time>2021-09-02T08:35:09Z</time>
      </trkpt>
      <trkpt lat="43.3691" lon="2.47637">
        <ele>644.2</ele>
        <time>2021-09-02T08:35:39Z</time>
      </trkpt>
      <trkpt lat="43.36928" lon="2.47682">
        <ele>647.6</ele>
        <time>2021-09-02T08:36:09Z</time>
      </trkpt>
      <trkpt lat="43.36996" lon="2.47723">
        <ele>654.7</ele>
        <time>2021-09-02T08:37:12Z</time>
      </trkpt>
      <trkpt lat="43.37034" lon="2.47722">
        <ele>658.9</ele>
        <time>2021-09-02T08:37:42Z</time>
      </trkpt>
      <trkpt lat="43.37072" lon="2.47732">
        <ele>663.1</ele>
        <time>2021-09-02T08:38:12Z</time>
      </trkpt>
      <trkpt lat="43.37104" lon="2.4775">
        <ele>666.7</ele>
        <time>2021-09-02T08:38:42Z</time>
      </trkpt>
      <trkpt lat="43.37131" lon="2.47781">
        <ele>669.7</ele>
        <time>2021-09-02T08:39:12Z</time>
      </trkpt>
      <trkpt lat="43.37148" lon="2.47813">
        <ele>673</ele>
        <time>2021-09-02T08:39:43Z</time>
      </trkpt>
      <trkpt lat="43.37166" lon="2.47841">
        <ele>677</ele>
        <time>2021-09-02T08:40:13Z</time>
      </trkpt>
      <trkpt lat="43.37193" lon="2.47871">
        <ele>682.8</ele>
        <time>2021-09-02T08:40:43Z</time>
      </trkpt>
      <trkpt lat="43.37218" lon="2.47846">
        <ele>686.8</ele>
        <time>2021-09-02T08:41:13Z</time>
      </trkpt>
      <trkpt lat="43.37245" lon="2.47817">
        <ele>690.1</ele>
        <time>2021-09-02T08:41:43Z</time>
      </trkpt>
      <trkpt lat="43.37274" lon="2.47785">
        <ele>695.5</ele>
        <time>2021-09-02T08:42:13Z</time>
      </trkpt>
      <trkpt lat="43.37293" lon="2.47739">
        <ele>698.3</ele>
        <time>2021-09-02T08:42:43Z</time>
      </trkpt>
      <trkpt lat="43.373" lon="2.4772">
        <ele>699.3</ele>
        <time>2021-09-02T08:43:13Z</time>
      </trkpt>
      <trkpt lat="43.37308" lon="2.4769">
        <ele>700.2</ele>
        <time>2021-09-02T08:43:43Z</time>
      </trkpt>
      <trkpt lat="43.37318" lon="2.47671">
        <ele>702.4</ele>
        <time>2021-09-02T08:44:13Z</time>
      </trkpt>
      <trkpt lat="43.3732" lon="2.47688">
        <ele>703.7</ele>
        <time>2021-09-02T08:44:15Z</time>
      </trkpt>
      <trkpt lat="43.3732" lon="2.47688">
        <ele>703.7</ele>
        <time>2021-09-02T08:44:25Z</time>
      </trkpt>
      <trkpt lat="43.37327" lon="2.47714">
        <ele>706.9</ele>
        <time>2021-09-02T08:44:43Z</time>
      </trkpt>
      <trkpt lat="43.37369" lon="2.47722">
        <ele>716.6</ele>
        <time>2021-09-02T08:45:49Z</time>
      </trkpt>
      <trkpt lat="43.37389" lon="2.47688">
        <ele>719.3</ele>
        <time>2021-09-02T08:46:22Z</time>
      </trkpt>
      <trkpt lat="43.37416" lon="2.47679">
        <ele>724.5</ele>
        <time>2021-09-02T08:46:52Z</time>
      </trkpt>
      <trkpt lat="43.37437" lon="2.47685">
        <ele>726.7</ele>
        <time>2021-09-02T08:47:22Z</time>
      </trkpt>
      <trkpt lat="43.37465" lon="2.47673">
        <ele>728.5</ele>
        <time>2021-09-02T08:47:52Z</time>
      </trkpt>
      <trkpt lat="43.37497" lon="2.47662">
        <ele>730</ele>
        <time>2021-09-02T08:48:22Z</time>
      </trkpt>
      <trkpt lat="43.37534" lon="2.47649">
        <ele>731</ele>
        <time>2021-09-02T08:48:52Z</time>
      </trkpt>
      <trkpt lat="43.37545" lon="2.47649">
        <ele>732</ele>
      </trkpt>
      <trkpt lat="43.37553" lon="2.47663">
        <ele>734.9</ele>
        <time>2021-09-02T08:49:22Z</time>
      </trkpt>
      <trkpt lat="43.37569" lon="2.47697">
        <ele>738.1</ele>
        <time>2021-09-02T08:49:52Z</time>
      </trkpt>
      <trkpt lat="43.3757" lon="2.47715">
        <ele>739</ele>
      </trkpt>
      <trkpt lat="43.37553" lon="2.47734">
        <ele>739.1</ele>
        <time>2021-09-02T08:50:22Z</time>
      </trkpt>
      <trkpt lat="43.37521" lon="2.47768">
        <ele>739.9</ele>
        <time>2021-09-02T08:50:52Z</time>
      </trkpt>
      <trkpt lat="43.37496" lon="2.47805">
        <ele>742.7</ele>
        <time>2021-09-02T08:51:22Z</time>
      </trkpt>
      <trkpt lat="43.37502" lon="2.47846">
        <ele>746.9</ele>
        <time>2021-09-02T08:51:52Z</time>
      </trkpt>
      <trkpt lat="43.37507" lon="2.47887">
        <ele>749.6</ele>
        <time>2021-09-02T08:52:22Z</time>
      </trkpt>
      <trkpt lat="43.3752" lon="2.47975">
        <ele>757.3</ele>
        <time>2021-09-02T08:53:44Z</time>
      </trkpt>
      <trkpt lat="43.37528" lon="2.48029">
        <ele>762.2</ele>
        <time>2021-09-02T08:54:15Z</time>
      </trkpt>
      <trkpt lat="43.37527" lon="2.4802">
        <ele>761.4</ele>
        <time>2021-09-02T08:54:17Z</time>
      </trkpt>
      <trkpt lat="43.37528" lon="2.48031">
        <ele>762.4</ele>
        <time>2021-09-02T08:54:25Z</time>
      </trkpt>
      <trkpt lat="43.37532" lon="2.48067">
        <ele>765.8</ele>
        <time>2021-09-02T08:54:47Z</time>
      </trkpt>
      <trkpt lat="43.37537" lon="2.48106">
        <ele>768.8</ele>
        <time>2021-09-02T08:55:17Z</time>
      </trkpt>
      <trkpt lat="43.37541" lon="2.48156">
        <ele>771.8</ele>
        <time>2021-09-02T08:55:48Z</time>
      </trkpt>
      <trkpt lat="43.37539" lon="2.48204">
        <ele>774.6</ele>
        <time>2021-09-02T08:56:19Z</time>
      </trkpt>
      <trkpt lat="43.37532" lon="2.48252">
        <ele>778.1</ele>
        <time>2021-09-02T08:56:49Z</time>
      </trkpt>
      <trkpt lat="43.37525" lon="2.48305">
        <ele>781.9</ele>
        <time>2021-09-02T08:57:20Z</time>
      </trkpt>
      <trkpt lat="43.3752" lon="2.48358">
        <ele>784.6</ele>
        <time>2021-09-02T08:57:50Z</time>
      </trkpt>
      <trkpt lat="43.37527" lon="2.48403">
        <ele>784.5</ele>
        <time>2021-09-02T08:58:20Z</time>
      </trkpt>
      <trkpt lat="43.37529" lon="2.48411">
        <ele>784.4</ele>
        <time>2021-09-02T08:58:50Z</time>
      </trkpt>
      <trkpt lat="43.37532" lon="2.48425">
        <ele>784.1</ele>
        <time>2021-09-02T08:59:20Z</time>
      </trkpt>
      <trkpt lat="43.37534" lon="2.48437">
        <ele>783.8</ele>
        <time>2021-09-02T08:59:50Z</time>
      </trkpt>
      <trkpt lat="43.37535" lon="2.48442">
        <ele>783.7</ele>
        <time>2021-09-02T09:00:20Z</time>
      </trkpt>
      <trkpt lat="43.37537" lon="2.48442">
        <ele>783.6</ele>
      </trkpt>
      <trkpt lat="43.37535" lon="2.48448">
        <ele>783.7</ele>
        <time>2021-09-02T09:03:20Z</time>
      </trkpt>
      <trkpt lat="43.37541" lon="2.48483">
        <ele>783.4</ele>
        <time>2021-09-02T09:03:51Z</time>
      </trkpt>
      <trkpt lat="43.37547" lon="2.4854">
        <ele>785.2</ele>
        <time>2021-09-02T09:04:15Z</time>
      </trkpt>
      <trkpt lat="43.37545" lon="2.48534">
        <ele>784.9</ele>
        <time>2021-09-02T09:04:21Z</time>
      </trkpt>
      <trkpt lat="43.37548" lon="2.48541">
        <ele>785.4</ele>
        <time>2021-09-02T09:04:26Z</time>
      </trkpt>
      <trkpt lat="43.37568" lon="2.48574">
        <ele>788.7</ele>
        <time>2021-09-02T09:04:52Z</time>
      </trkpt>
      <trkpt lat="43.37586" lon="2.48611">
        <ele>794.8</ele>
        <time>2021-09-02T09:05:22Z</time>
      </trkpt>
      <trkpt lat="43.37604" lon="2.48637">
        <ele>797.9</ele>
        <time>2021-09-02T09:05:52Z</time>
      </trkpt>
      <trkpt lat="43.37627" lon="2.48659">
        <ele>801.8</ele>
        <time>2021-09-02T09:06:22Z</time>
      </trkpt>
      <trkpt lat="43.37636" lon="2.48665">
        <ele>803.2</ele>
        <time>2021-09-02T09:06:52Z</time>
      </trkpt>
      <trkpt lat="43.37629" lon="2.48665">
        <ele>803.2</ele>
        <time>2021-09-02T09:07:22Z</time>
      </trkpt>
      <trkpt lat="43.37622" lon="2.48676">
        <ele>804.9</ele>
        <time>2021-09-02T09:07:55Z</time>
      </trkpt>
      <trkpt lat="43.3765" lon="2.48724">
        <ele>814.8</ele>
        <time>2021-09-02T09:08:48Z</time>
      </trkpt>
      <trkpt lat="43.3766" lon="2.48743">
        <ele>819.7</ele>
        <time>2021-09-02T09:09:18Z</time>
      </trkpt>
      <trkpt lat="43.37679" lon="2.48772">
        <ele>819.3</ele>
        <time>2021-09-02T09:09:50Z</time>
      </trkpt>
      <trkpt lat="43.37681" lon="2.48783">
        <ele>818.5</ele>
        <time>2021-09-02T09:10:20Z</time>
      </trkpt>
      <trkpt lat="43.37688" lon="2.48796">
        <ele>817.1</ele>
        <time>2021-09-02T09:10:50Z</time>
      </trkpt>
      <trkpt lat="43.37691" lon="2.48785">
        <ele>817.3</ele>
        <time>2021-09-02T09:11:20Z</time>
      </trkpt>
      <trkpt lat="43.37695" lon="2.48789">
        <ele>816.7</ele>
        <time>2021-09-02T09:11:50Z</time>
      </trkpt>
      <trkpt lat="43.37714" lon="2.48811">
        <ele>813.9</ele>
        <time>2021-09-02T09:12:22Z</time>
      </trkpt>
      <trkpt lat="43.37731" lon="2.48811">
        <ele>812.3</ele>
        <time>2021-09-02T09:12:52Z</time>
      </trkpt>
      <trkpt lat="43.37744" lon="2.48817">
        <ele>810.9</ele>
        <time>2021-09-02T09:13:22Z</time>
      </trkpt>
      <trkpt lat="43.3776" lon="2.48831">
        <ele>809.6</ele>
        <time>2021-09-02T09:13:52Z</time>
      </trkpt>
      <trkpt lat="43.37776" lon="2.48823">
        <ele>808.9</ele>
        <time>2021-09-02T09:14:15Z</time>
      </trkpt>
      <trkpt lat="43.37776" lon="2.48825">
        <ele>808.9</ele>
        <time>2021-09-02T09:14:22Z</time>
      </trkpt>
      <trkpt lat="43.37776" lon="2.48824">
        <ele>808.9</ele>
        <time>2021-09-02T09:14:26Z</time>
      </trkpt>
      <trkpt lat="43.37792" lon="2.48813">
        <ele>808.1</ele>
        <time>2021-09-02T09:14:52Z</time>
      </trkpt>
      <trkpt lat="43.37822" lon="2.48795">
        <ele>806.3</ele>
        <time>2021-09-02T09:15:22Z</time>
      </trkpt>
      <trkpt lat="43.37854" lon="2.48794">
        <ele>806.6</ele>
        <time>2021-09-02T09:15:52Z</time>
      </trkpt>
      <trkpt lat="43.37884" lon="2.48809">
        <ele>809.2</ele>
        <time>2021-09-02T09:16:22Z</time>
      </trkpt>
      <trkpt lat="43.3791" lon="2.48823">
        <ele>812.3</ele>
        <time>2021-09-02T09:16:52Z</time>
      </trkpt>
      <trkpt lat="43.37926" lon="2.48852">
        <ele>813.9</ele>
        <time>2021-09-02T09:17:22Z</time>
      </trkpt>
      <trkpt lat="43.37953" lon="2.48865">
        <ele>815.9</ele>
        <time>2021-09-02T09:17:52Z</time>
      </trkpt>
      <trkpt lat="43.37985" lon="2.48857">
        <ele>818.9</ele>
        <time>2021-09-02T09:18:22Z</time>
      </trkpt>
      <trkpt lat="43.38019" lon="2.4885">
        <ele>818</ele>
        <time>2021-09-02T09:18:52Z</time>
      </trkpt>
      <trkpt lat="43.38049" lon="2.48857">
        <ele>814.3</ele>
        <time>2021-09-02T09:19:22Z</time>
      </trkpt>
      <trkpt lat="43.38083" lon="2.48861">
        <ele>810</ele>
        <time>2021-09-02T09:19:52Z</time>
      </trkpt>
      <trkpt lat="43.38087" lon="2.48927">
        <ele>805.8</ele>
        <time>2021-09-02T09:20:45Z</time>
      </trkpt>
      <trkpt lat="43.38085" lon="2.48986">
        <ele>804.1</ele>
        <time>2021-09-02T09:21:19Z</time>
      </trkpt>
      <trkpt lat="43.38094" lon="2.49023">
        <ele>798.9</ele>
        <time>2021-09-02T09:21:49Z</time>
      </trkpt>
      <trkpt lat="43.38085" lon="2.49067">
        <ele>796.6</ele>
        <time>2021-09-02T09:22:19Z</time>
      </trkpt>
      <trkpt lat="43.38076" lon="2.49114">
        <ele>791.6</ele>
        <time>2021-09-02T09:22:49Z</time>
      </trkpt>
      <trkpt lat="43.38064" lon="2.4915">
        <ele>787</ele>
        <time>2021-09-02T09:23:19Z</time>
      </trkpt>
      <trkpt lat="43.38063" lon="2.49179">
        <ele>784.5</ele>
        <time>2021-09-02T09:23:50Z</time>
      </trkpt>
      <trkpt lat="43.38069" lon="2.49233">
        <ele>783</ele>
        <time>2021-09-02T09:24:15Z</time>
      </trkpt>
      <trkpt lat="43.38069" lon="2.49224">
        <ele>783.3</ele>
        <time>2021-09-02T09:24:21Z</time>
      </trkpt>
      <trkpt lat="43.38069" lon="2.49234">
        <ele>782.9</ele>
        <time>2021-09-02T09:24:27Z</time>
      </trkpt>
      <trkpt lat="43.38061" lon="2.49259">
        <ele>782.2</ele>
        <time>2021-09-02T09:24:54Z</time>
      </trkpt>
      <trkpt lat="43.3807" lon="2.49281">
        <ele>785.6</ele>
        <time>2021-09-02T09:25:24Z</time>
      </trkpt>
      <trkpt lat="43.38076" lon="2.49312">
        <ele>789.7</ele>
        <time>2021-09-02T09:25:54Z</time>
      </trkpt>
      <trkpt lat="43.3808" lon="2.49341">
        <ele>794</ele>
        <time>2021-09-02T09:26:24Z</time>
      </trkpt>
      <trkpt lat="43.3809" lon="2.49363">
        <ele>799.2</ele>
        <time>2021-09-02T09:26:54Z</time>
      </trkpt>
      <trkpt lat="43.38106" lon="2.49376">
        <ele>803.1</ele>
        <time>2021-09-02T09:27:24Z</time>
      </trkpt>
      <trkpt lat="43.38122" lon="2.49401">
        <ele>810.1</ele>
        <time>2021-09-02T09:28:23Z</time>
      </trkpt>
      <trkpt lat="43.3814" lon="2.49416">
        <ele>815.6</ele>
        <time>2021-09-02T09:28:53Z</time>
      </trkpt>
      <trkpt lat="43.38152" lon="2.49435">
        <ele>821.3</ele>
        <time>2021-09-02T09:29:23Z</time>
      </trkpt>
      <trkpt lat="43.38158" lon="2.49457">
        <ele>827</ele>
        <time>2021-09-02T09:29:53Z</time>
      </trkpt>
      <trkpt lat="43.38163" lon="2.4948">
        <ele>832.9</ele>
        <time>2021-09-02T09:30:23Z</time>
      </trkpt>
      <trkpt lat="43.38164" lon="2.49503">
        <ele>838.3</ele>
        <time>2021-09-02T09:30:53Z</time>
      </trkpt>
      <trkpt lat="43.38162" lon="2.4953">
        <ele>844.5</ele>
        <time>2021-09-02T09:31:23Z</time>
      </trkpt>
      <trkpt lat="43.38163" lon="2.49555">
        <ele>850.6</ele>
        <time>2021-09-02T09:31:53Z</time>
      </trkpt>
      <trkpt lat="43.38166" lon="2.49577">
        <ele>856.4</ele>
        <time>2021-09-02T09:32:23Z</time>
      </trkpt>
      <trkpt lat="43.38172" lon="2.4959">
        <ele>858</ele>
        <time>2021-09-02T09:32:53Z</time>
      </trkpt>
      <trkpt lat="43.38182" lon="2.49616">
        <ele>859.1</ele>
        <time>2021-09-02T09:33:23Z</time>
      </trkpt>
      <trkpt lat="43.38187" lon="2.49627">
        <ele>859.7</ele>
        <time>2021-09-02T09:33:53Z</time>
      </trkpt>
      <trkpt lat="43.38195" lon="2.49647">
        <ele>860.8</ele>
        <time>2021-09-02T09:34:15Z</time>
      </trkpt>
      <trkpt lat="43.38193" lon="2.49647">
        <ele>860.9</ele>
        <time>2021-09-02T09:34:23Z</time>
      </trkpt>
      <trkpt lat="43.38196" lon="2.49649">
        <ele>860.9</ele>
        <time>2021-09-02T09:34:27Z</time>
      </trkpt>
      <trkpt lat="43.3822" lon="2.49646">
        <ele>859.8</ele>
        <time>2021-09-02T09:34:53Z</time>
      </trkpt>
      <trkpt lat="43.38275" lon="2.49661">
        <ele>853.8</ele>
        <time>2021-09-02T09:35:54Z</time>
      </trkpt>
      <trkpt lat="43.38291" lon="2.49679">
        <ele>850.5</ele>
        <time>2021-09-02T09:36:24Z</time>
      </trkpt>
      <trkpt lat="43.3832" lon="2.49692">
        <ele>844.9</ele>
        <time>2021-09-02T09:36:57Z</time>
      </trkpt>
      <trkpt lat="43.38337" lon="2.49708">
        <ele>843.2</ele>
        <time>2021-09-02T09:37:27Z</time>
      </trkpt>
      <trkpt lat="43.38356" lon="2.49738">
        <ele>843.4</ele>
        <time>2021-09-02T09:38:00Z</time>
      </trkpt>
      <trkpt lat="43.38384" lon="2.49765">
        <ele>841.8</ele>
        <time>2021-09-02T09:38:30Z</time>
      </trkpt>
      <trkpt lat="43.38412" lon="2.49796">
        <ele>841.6</ele>
        <time>2021-09-02T09:39:05Z</time>
      </trkpt>
      <trkpt lat="43.3845" lon="2.49833">
        <ele>844.9</ele>
        <time>2021-09-02T09:39:55Z</time>
      </trkpt>
      <trkpt lat="43.3847" lon="2.49864">
        <ele>845.6</ele>
        <time>2021-09-02T09:40:29Z</time>
      </trkpt>
      <trkpt lat="43.38479" lon="2.4988">
        <ele>846.5</ele>
        <time>2021-09-02T09:40:59Z</time>
      </trkpt>
      <trkpt lat="43.38487" lon="2.49895">
        <ele>847.7</ele>
        <time>2021-09-02T09:41:29Z</time>
      </trkpt>
      <trkpt lat="43.38505" lon="2.49942">
        <ele>848</ele>
        <time>2021-09-02T09:41:59Z</time>
      </trkpt>
      <trkpt lat="43.38524" lon="2.49984">
        <ele>844.1</ele>
        <time>2021-09-02T09:42:29Z</time>
      </trkpt>
      <trkpt lat="43.3853" lon="2.50007">
        <ele>843.5</ele>
      </trkpt>
      <trkpt lat="43.38528" lon="2.50031">
        <ele>843.6</ele>
        <time>2021-09-02T09:42:59Z</time>
      </trkpt>
      <trkpt lat="43.38515" lon="2.50081">
        <ele>843.9</ele>
        <time>2021-09-02T09:43:29Z</time>
      </trkpt>
      <trkpt lat="43.38512" lon="2.50103">
        <ele>843.6</ele>
      </trkpt>
      <trkpt lat="43.38529" lon="2.50105">
        <ele>843.7</ele>
        <time>2021-09-02T09:43:59Z</time>
      </trkpt>
      <trkpt lat="43.3856" lon="2.50117">
        <ele>844.2</ele>
        <time>2021-09-02T09:44:15Z</time>
      </trkpt>
      <trkpt lat="43.38561" lon="2.50118">
        <ele>844.3</ele>
        <time>2021-09-02T09:44:27Z</time>
      </trkpt>
      <trkpt lat="43.38563" lon="2.50118">
        <ele>844.3</ele>
        <time>2021-09-02T09:44:29Z</time>
      </trkpt>
      <trkpt lat="43.38592" lon="2.50136">
        <ele>845</ele>
        <time>2021-09-02T09:44:59Z</time>
      </trkpt>
      <trkpt lat="43.3861" lon="2.50149">
        <ele>845.1</ele>
        <time>2021-09-02T09:45:34Z</time>
      </trkpt>
      <trkpt lat="43.38613" lon="2.50138">
        <ele>843.9</ele>
        <time>2021-09-02T09:46:11Z</time>
      </trkpt>
      <trkpt lat="43.38605" lon="2.50142">
        <ele>844.7</ele>
        <time>2021-09-02T09:47:00Z</time>
      </trkpt>
      <trkpt lat="43.38615" lon="2.5015">
        <ele>845</ele>
        <time>2021-09-02T09:47:30Z</time>
      </trkpt>
      <trkpt lat="43.3865" lon="2.50172">
        <ele>846</ele>
        <time>2021-09-02T09:48:00Z</time>
      </trkpt>
      <trkpt lat="43.38679" lon="2.50206">
        <ele>844.7</ele>
        <time>2021-09-02T09:48:30Z</time>
      </trkpt>
      <trkpt lat="43.38715" lon="2.50215">
        <ele>844.4</ele>
        <time>2021-09-02T09:49:00Z</time>
      </trkpt>
      <trkpt lat="43.38745" lon="2.50234">
        <ele>847.1</ele>
        <time>2021-09-02T09:49:30Z</time>
      </trkpt>
      <trkpt lat="43.38778" lon="2.50251">
        <ele>851</ele>
        <time>2021-09-02T09:50:00Z</time>
      </trkpt>
      <trkpt lat="43.38802" lon="2.50271">
        <ele>853.6</ele>
        <time>2021-09-02T09:50:30Z</time>
      </trkpt>
      <trkpt lat="43.38824" lon="2.50298">
        <ele>858.7</ele>
        <time>2021-09-02T09:51:00Z</time>
      </trkpt>
      <trkpt lat="43.38849" lon="2.50328">
        <ele>862.6</ele>
        <time>2021-09-02T09:51:33Z</time>
      </trkpt>
      <trkpt lat="43.38873" lon="2.50359">
        <ele>863.4</ele>
        <time>2021-09-02T09:52:03Z</time>
      </trkpt>
      <trkpt lat="43.38925" lon="2.50426">
        <ele>873.1</ele>
        <time>2021-09-02T09:53:00Z</time>
      </trkpt>
      <trkpt lat="43.38947" lon="2.50465">
        <ele>879.6</ele>
        <time>2021-09-02T09:53:31Z</time>
      </trkpt>
      <trkpt lat="43.38946" lon="2.50467">
        <ele>879.9</ele>
        <time>2021-09-02T09:54:02Z</time>
      </trkpt>
      <trkpt lat="43.38947" lon="2.50467">
        <ele>880</ele>
        <time>2021-09-02T09:54:15Z</time>
      </trkpt>
      <trkpt lat="43.38948" lon="2.50468">
        <ele>880.2</ele>
        <time>2021-09-02T09:54:29Z</time>
      </trkpt>
      <trkpt lat="43.38946" lon="2.50472">
        <ele>880.7</ele>
        <time>2021-09-02T09:55:29Z</time>
      </trkpt>
      <trkpt lat="43.38973" lon="2.50499">
        <ele>888.5</ele>
        <time>2021-09-02T09:56:00Z</time>
      </trkpt>
      <trkpt lat="43.38994" lon="2.5052">
        <ele>894.5</ele>
        <time>2021-09-02T09:56:30Z</time>
      </trkpt>
      <trkpt lat="43.39008" lon="2.50545">
        <ele>899.9</ele>
        <time>2021-09-02T09:57:00Z</time>
      </trkpt>
      <trkpt lat="43.39021" lon="2.50564">
        <ele>904</ele>
        <time>2021-09-02T09:57:30Z</time>
      </trkpt>
      <trkpt lat="43.39037" lon="2.50585">
        <ele>908.8</ele>
        <time>2021-09-02T09:58:00Z</time>
      </trkpt>
      <trkpt lat="43.39054" lon="2.50608">
        <ele>911.6</ele>
        <time>2021-09-02T09:58:30Z</time>
      </trkpt>
      <trkpt lat="43.39063" lon="2.50621">
        <ele>913.4</ele>
        <time>2021-09-02T09:59:00Z</time>
      </trkpt>
      <trkpt lat="43.39075" lon="2.50653">
        <ele>917</ele>
        <time>2021-09-02T09:59:30Z</time>
      </trkpt>
      <trkpt lat="43.39075" lon="2.5069">
        <ele>917.7</ele>
        <time>2021-09-02T10:00:00Z</time>
      </trkpt>
      <trkpt lat="43.39075" lon="2.50697">
        <ele>917.5</ele>
        <time>2021-09-02T10:00:30Z</time>
      </trkpt>
      <trkpt lat="43.39072" lon="2.50745">
        <ele>916.4</ele>
        <time>2021-09-02T10:01:00Z</time>
      </trkpt>
      <trkpt lat="43.3907" lon="2.50801">
        <ele>915</ele>
        <time>2021-09-02T10:01:30Z</time>
      </trkpt>
      <trkpt lat="43.39074" lon="2.50837">
        <ele>914.1</ele>
        <time>2021-09-02T10:02:50Z</time>
      </trkpt>
      <trkpt lat="43.39113" lon="2.5084">
        <ele>914.4</ele>
        <time>2021-09-02T10:03:23Z</time>
      </trkpt>
      <trkpt lat="43.39154" lon="2.5084">
        <ele>914.4</ele>
        <time>2021-09-02T10:03:53Z</time>
      </trkpt>
      <trkpt lat="43.39187" lon="2.50839">
        <ele>916.2</ele>
        <time>2021-09-02T10:04:23Z</time>
      </trkpt>
      <trkpt lat="43.39195" lon="2.50839">
        <ele>916.9</ele>
        <time>2021-09-02T10:04:30Z</time>
      </trkpt>
      <trkpt lat="43.39194" lon="2.50838">
        <ele>916.9</ele>
        <time>2021-09-02T10:04:30Z</time>
      </trkpt>
      <trkpt lat="43.39217" lon="2.50837">
        <ele>918.9</ele>
        <time>2021-09-02T10:04:53Z</time>
      </trkpt>
      <trkpt lat="43.3925" lon="2.50841">
        <ele>921.4</ele>
        <time>2021-09-02T10:05:23Z</time>
      </trkpt>
      <trkpt lat="43.39282" lon="2.50846">
        <ele>920.1</ele>
        <time>2021-09-02T10:05:53Z</time>
      </trkpt>
      <trkpt lat="43.39315" lon="2.50864">
        <ele>918.8</ele>
        <time>2021-09-02T10:06:23Z</time>
      </trkpt>
      <trkpt lat="43.39347" lon="2.50893">
        <ele>916.4</ele>
        <time>2021-09-02T10:06:53Z</time>
      </trkpt>
      <trkpt lat="43.39368" lon="2.5091">
        <ele>914</ele>
        <time>2021-09-02T10:07:24Z</time>
      </trkpt>
      <trkpt lat="43.39391" lon="2.50927">
        <ele>911</ele>
        <time>2021-09-02T10:07:54Z</time>
      </trkpt>
      <trkpt lat="43.39419" lon="2.50966">
        <ele>906.7</ele>
        <time>2021-09-02T10:08:24Z</time>
      </trkpt>
      <trkpt lat="43.39447" lon="2.50998">
        <ele>900.2</ele>
        <time>2021-09-02T10:08:54Z</time>
      </trkpt>
      <trkpt lat="43.39472" lon="2.51018">
        <ele>894.6</ele>
        <time>2021-09-02T10:09:24Z</time>
      </trkpt>
      <trkpt lat="43.395" lon="2.51042">
        <ele>890</ele>
        <time>2021-09-02T10:09:54Z</time>
      </trkpt>
      <trkpt lat="43.39525" lon="2.51061">
        <ele>886.1</ele>
        <time>2021-09-02T10:10:24Z</time>
      </trkpt>
      <trkpt lat="43.39568" lon="2.51087">
        <ele>881.9</ele>
        <time>2021-09-02T10:10:57Z</time>
      </trkpt>
      <trkpt lat="43.396" lon="2.51118">
        <ele>881.1</ele>
        <time>2021-09-02T10:11:27Z</time>
      </trkpt>
      <trkpt lat="43.39631" lon="2.5113">
        <ele>882</ele>
        <time>2021-09-02T10:11:57Z</time>
      </trkpt>
      <trkpt lat="43.39664" lon="2.51115">
        <ele>880.2</ele>
        <time>2021-09-02T10:12:27Z</time>
      </trkpt>
      <trkpt lat="43.39684" lon="2.51114">
        <ele>878.7</ele>
      </trkpt>
      <trkpt lat="43.39699" lon="2.51126">
        <ele>879.3</ele>
        <time>2021-09-02T10:12:57Z</time>
      </trkpt>
      <trkpt lat="43.39724" lon="2.51168">
        <ele>883.7</ele>
        <time>2021-09-02T10:13:27Z</time>
      </trkpt>
      <trkpt lat="43.39738" lon="2.51218">
        <ele>888.3</ele>
        <time>2021-09-02T10:13:57Z</time>
      </trkpt>
      <trkpt lat="43.39752" lon="2.5127">
        <ele>893.9</ele>
        <time>2021-09-02T10:14:27Z</time>
      </trkpt>
      <trkpt lat="43.39754" lon="2.51274">
        <ele>894.4</ele>
        <time>2021-09-02T10:14:30Z</time>
      </trkpt>
      <trkpt lat="43.39755" lon="2.51274">
        <ele>894.4</ele>
        <time>2021-09-02T10:14:31Z</time>
      </trkpt>
      <trkpt lat="43.39776" lon="2.51302">
        <ele>898.4</ele>
        <time>2021-09-02T10:14:57Z</time>
      </trkpt>
      <trkpt lat="43.39812" lon="2.51291">
        <ele>898.5</ele>
        <time>2021-09-02T10:15:27Z</time>
      </trkpt>
      <trkpt lat="43.39852" lon="2.51268">
        <ele>898</ele>
        <time>2021-09-02T10:15:57Z</time>
      </trkpt>
      <trkpt lat="43.39887" lon="2.5125">
        <ele>900.7</ele>
        <time>2021-09-02T10:16:27Z</time>
      </trkpt>
      <trkpt lat="43.39922" lon="2.51231">
        <ele>901.5</ele>
        <time>2021-09-02T10:16:57Z</time>
      </trkpt>
      <trkpt lat="43.39956" lon="2.51209">
        <ele>901.3</ele>
        <time>2021-09-02T10:17:27Z</time>
      </trkpt>
      <trkpt lat="43.39993" lon="2.51194">
        <ele>903.9</ele>
        <time>2021-09-02T10:17:57Z</time>
      </trkpt>
      <trkpt lat="43.40031" lon="2.51183">
        <ele>904.9</ele>
        <time>2021-09-02T10:18:27Z</time>
      </trkpt>
      <trkpt lat="43.40072" lon="2.51196">
        <ele>910.2</ele>
        <time>2021-09-02T10:18:57Z</time>
      </trkpt>
      <trkpt lat="43.40109" lon="2.51215">
        <ele>914</ele>
        <time>2021-09-02T10:19:27Z</time>
      </trkpt>
      <trkpt lat="43.40186" lon="2.51236">
        <ele>917.1</ele>
        <time>2021-09-02T10:20:31Z</time>
      </trkpt>
      <trkpt lat="43.40218" lon="2.5123">
        <ele>918.3</ele>
        <time>2021-09-02T10:21:02Z</time>
      </trkpt>
      <trkpt lat="43.40216" lon="2.51229">
        <ele>918.2</ele>
        <time>2021-09-02T10:22:02Z</time>
      </trkpt>
      <trkpt lat="43.40218" lon="2.51229">
        <ele>918.3</ele>
        <time>2021-09-02T10:22:35Z</time>
      </trkpt>
      <trkpt lat="43.40258" lon="2.5122">
        <ele>919.8</ele>
        <time>2021-09-02T10:23:05Z</time>
      </trkpt>
      <trkpt lat="43.40297" lon="2.51208">
        <ele>920.9</ele>
        <time>2021-09-02T10:23:35Z</time>
      </trkpt>
      <trkpt lat="43.40342" lon="2.51192">
        <ele>922.3</ele>
        <time>2021-09-02T10:24:07Z</time>
      </trkpt>
      <trkpt lat="43.40373" lon="2.51188">
        <ele>922</ele>
        <time>2021-09-02T10:24:30Z</time>
      </trkpt>
      <trkpt lat="43.40373" lon="2.51188">
        <ele>922</ele>
        <time>2021-09-02T10:24:31Z</time>
      </trkpt>
      <trkpt lat="43.40381" lon="2.51185">
        <ele>921.9</ele>
        <time>2021-09-02T10:24:37Z</time>
      </trkpt>
      <trkpt lat="43.40395" lon="2.51167">
        <ele>921.5</ele>
        <time>2021-09-02T10:25:07Z</time>
      </trkpt>
      <trkpt lat="43.40394" lon="2.51163">
        <ele>921.8</ele>
        <time>2021-09-02T10:25:37Z</time>
      </trkpt>
      <trkpt lat="43.40422" lon="2.51135">
        <ele>922.3</ele>
        <time>2021-09-02T10:27:36Z</time>
      </trkpt>
      <trkpt lat="43.40437" lon="2.51185">
        <ele>916.6</ele>
        <time>2021-09-02T10:28:06Z</time>
      </trkpt>
      <trkpt lat="43.40464" lon="2.51216">
        <ele>911.9</ele>
        <time>2021-09-02T10:28:38Z</time>
      </trkpt>
      <trkpt lat="43.40473" lon="2.51207">
        <ele>909.4</ele>
        <time>2021-09-02T10:29:08Z</time>
      </trkpt>
      <trkpt lat="43.40467" lon="2.51139">
        <ele>910.8</ele>
        <time>2021-09-02T10:29:39Z</time>
      </trkpt>
      <trkpt lat="43.40487" lon="2.51104">
        <ele>909.2</ele>
        <time>2021-09-02T10:30:09Z</time>
      </trkpt>
      <trkpt lat="43.40514" lon="2.51073">
        <ele>906.4</ele>
        <time>2021-09-02T10:30:39Z</time>
      </trkpt>
      <trkpt lat="43.40559" lon="2.51036">
        <ele>902.5</ele>
        <time>2021-09-02T10:31:17Z</time>
      </trkpt>
      <trkpt lat="43.40623" lon="2.50992">
        <ele>894.7</ele>
        <time>2021-09-02T10:32:10Z</time>
      </trkpt>
      <trkpt lat="43.40671" lon="2.50968">
        <ele>886.3</ele>
        <time>2021-09-02T10:32:42Z</time>
      </trkpt>
      <trkpt lat="43.40706" lon="2.50909">
        <ele>885.6</ele>
        <time>2021-09-02T10:33:33Z</time>
      </trkpt>
      <trkpt lat="43.40724" lon="2.5085">
        <ele>885.3</ele>
        <time>2021-09-02T10:34:03Z</time>
      </trkpt>
      <trkpt lat="43.40746" lon="2.50808">
        <ele>881.9</ele>
        <time>2021-09-02T10:34:30Z</time>
      </trkpt>
      <trkpt lat="43.40746" lon="2.50808">
        <ele>881.9</ele>
        <time>2021-09-02T10:34:31Z</time>
      </trkpt>
      <trkpt lat="43.40747" lon="2.50806">
        <ele>881.7</ele>
        <time>2021-09-02T10:34:33Z</time>
      </trkpt>
      <trkpt lat="43.40762" lon="2.50753">
        <ele>882.9</ele>
        <time>2021-09-02T10:35:04Z</time>
      </trkpt>
      <trkpt lat="43.40786" lon="2.50705">
        <ele>878.4</ele>
        <time>2021-09-02T10:35:34Z</time>
      </trkpt>
      <trkpt lat="43.40801" lon="2.50657">
        <ele>875.7</ele>
        <time>2021-09-02T10:36:04Z</time>
      </trkpt>
      <trkpt lat="43.40826" lon="2.50601">
        <ele>869.9</ele>
        <time>2021-09-02T10:36:37Z</time>
      </trkpt>
      <trkpt lat="43.40843" lon="2.50558">
        <ele>868.3</ele>
        <time>2021-09-02T10:37:07Z</time>
      </trkpt>
      <trkpt lat="43.40866" lon="2.50505">
        <ele>866.5</ele>
        <time>2021-09-02T10:37:37Z</time>
      </trkpt>
      <trkpt lat="43.4087" lon="2.50453">
        <ele>865</ele>
        <time>2021-09-02T10:38:07Z</time>
      </trkpt>
      <trkpt lat="43.40865" lon="2.50401">
        <ele>862.9</ele>
        <time>2021-09-02T10:38:37Z</time>
      </trkpt>
      <trkpt lat="43.40844" lon="2.50344">
        <ele>854.3</ele>
        <time>2021-09-02T10:39:07Z</time>
      </trkpt>
      <trkpt lat="43.4081" lon="2.50324">
        <ele>853.9</ele>
        <time>2021-09-02T10:39:37Z</time>
      </trkpt>
      <trkpt lat="43.40767" lon="2.5029">
        <ele>850.9</ele>
        <time>2021-09-02T10:40:14Z</time>
      </trkpt>
      <trkpt lat="43.4073" lon="2.50263">
        <ele>847.7</ele>
        <time>2021-09-02T10:40:44Z</time>
      </trkpt>
      <trkpt lat="43.4067" lon="2.5022">
        <ele>846.2</ele>
        <time>2021-09-02T10:41:37Z</time>
      </trkpt>
      <trkpt lat="43.40638" lon="2.5019">
        <ele>839.2</ele>
        <time>2021-09-02T10:42:07Z</time>
      </trkpt>
      <trkpt lat="43.40599" lon="2.50179">
        <ele>835.2</ele>
        <time>2021-09-02T10:42:37Z</time>
      </trkpt>
      <trkpt lat="43.40561" lon="2.50177">
        <ele>830.4</ele>
        <time>2021-09-02T10:43:07Z</time>
      </trkpt>
      <trkpt lat="43.40524" lon="2.50186">
        <ele>827.6</ele>
        <time>2021-09-02T10:43:37Z</time>
      </trkpt>
      <trkpt lat="43.40504" lon="2.50194">
        <ele>827.9</ele>
        <time>2021-09-02T10:44:07Z</time>
      </trkpt>
      <trkpt lat="43.40483" lon="2.50205">
        <ele>826.5</ele>
        <time>2021-09-02T10:44:30Z</time>
      </trkpt>
      <trkpt lat="43.40483" lon="2.50207">
        <ele>827.3</ele>
        <time>2021-09-02T10:44:32Z</time>
      </trkpt>
      <trkpt lat="43.40476" lon="2.50212">
        <ele>827.1</ele>
        <time>2021-09-02T10:44:37Z</time>
      </trkpt>
      <trkpt lat="43.40454" lon="2.50227">
        <ele>826.4</ele>
        <time>2021-09-02T10:45:07Z</time>
      </trkpt>
      <trkpt lat="43.40476" lon="2.50198">
        <ele>821.5</ele>
        <time>2021-09-02T10:45:37Z</time>
      </trkpt>
      <trkpt lat="43.40492" lon="2.50174">
        <ele>816.7</ele>
        <time>2021-09-02T10:46:07Z</time>
      </trkpt>
      <trkpt lat="43.40513" lon="2.50147">
        <ele>812.3</ele>
        <time>2021-09-02T10:46:38Z</time>
      </trkpt>
      <trkpt lat="43.40541" lon="2.50114">
        <ele>808.8</ele>
        <time>2021-09-02T10:47:08Z</time>
      </trkpt>
      <trkpt lat="43.40555" lon="2.50076">
        <ele>802.3</ele>
        <time>2021-09-02T10:47:38Z</time>
      </trkpt>
      <trkpt lat="43.40518" lon="2.50067">
        <ele>790.4</ele>
        <time>2021-09-02T10:48:08Z</time>
      </trkpt>
      <trkpt lat="43.40547" lon="2.50011">
        <ele>784.2</ele>
      </trkpt>
      <trkpt lat="43.40587" lon="2.49965">
        <ele>777.7</ele>
        <time>2021-09-02T10:49:46Z</time>
      </trkpt>
      <trkpt lat="43.40629" lon="2.49937">
        <ele>770.5</ele>
        <time>2021-09-02T10:50:32Z</time>
      </trkpt>
      <trkpt lat="43.40623" lon="2.49918">
        <ele>765.7</ele>
        <time>2021-09-02T10:51:02Z</time>
      </trkpt>
      <trkpt lat="43.40571" lon="2.49901">
        <ele>760.2</ele>
      </trkpt>
      <trkpt lat="43.40517" lon="2.49881">
        <ele>750.2</ele>
        <time>2021-09-02T10:51:43Z</time>
      </trkpt>
      <trkpt lat="43.40519" lon="2.49871">
        <ele>748.2</ele>
        <time>2021-09-02T10:52:26Z</time>
      </trkpt>
      <trkpt lat="43.40529" lon="2.49872">
        <ele>749.5</ele>
        <time>2021-09-02T10:52:58Z</time>
      </trkpt>
      <trkpt lat="43.40537" lon="2.49874">
        <ele>750.8</ele>
        <time>2021-09-02T10:53:29Z</time>
      </trkpt>
      <trkpt lat="43.40563" lon="2.49857">
        <ele>749.9</ele>
        <time>2021-09-02T10:54:04Z</time>
      </trkpt>
      <trkpt lat="43.40578" lon="2.49827">
        <ele>745.3</ele>
        <time>2021-09-02T10:54:30Z</time>
      </trkpt>
      <trkpt lat="43.40578" lon="2.49829">
        <ele>745.6</ele>
        <time>2021-09-02T10:54:32Z</time>
      </trkpt>
      <trkpt lat="43.40578" lon="2.49828">
        <ele>745.4</ele>
        <time>2021-09-02T10:54:34Z</time>
      </trkpt>
      <trkpt lat="43.40599" lon="2.49781">
        <ele>738.2</ele>
        <time>2021-09-02T10:55:04Z</time>
      </trkpt>
      <trkpt lat="43.4062" lon="2.49741">
        <ele>731.5</ele>
        <time>2021-09-02T10:55:34Z</time>
      </trkpt>
      <trkpt lat="43.40617" lon="2.49707">
        <ele>724.7</ele>
        <time>2021-09-02T10:56:04Z</time>
      </trkpt>
      <trkpt lat="43.40607" lon="2.49658">
        <ele>714.7</ele>
        <time>2021-09-02T10:56:34Z</time>
      </trkpt>
      <trkpt lat="43.40641" lon="2.49653">
        <ele>714</ele>
        <time>2021-09-02T10:57:05Z</time>
      </trkpt>
      <trkpt lat="43.40665" lon="2.4969">
        <ele>722.7</ele>
        <time>2021-09-02T10:57:35Z</time>
      </trkpt>
      <trkpt lat="43.40689" lon="2.49714">
        <ele>732.7</ele>
      </trkpt>
      <trkpt lat="43.40698" lon="2.49697">
        <ele>731.8</ele>
        <time>2021-09-02T10:58:14Z</time>
      </trkpt>
      <trkpt lat="43.40721" lon="2.49607">
        <ele>717.8</ele>
        <time>2021-09-02T10:59:07Z</time>
      </trkpt>
      <trkpt lat="43.40744" lon="2.49554">
        <ele>713.1</ele>
        <time>2021-09-02T10:59:37Z</time>
      </trkpt>
      <trkpt lat="43.40755" lon="2.4954">
        <ele>714.1</ele>
        <time>2021-09-02T11:00:49Z</time>
      </trkpt>
      <trkpt lat="43.40756" lon="2.49526">
        <ele>711.6</ele>
        <time>2021-09-02T11:01:19Z</time>
      </trkpt>
      <trkpt lat="43.40763" lon="2.49479">
        <ele>705.7</ele>
        <time>2021-09-02T11:01:49Z</time>
      </trkpt>
      <trkpt lat="43.40773" lon="2.49434">
        <ele>701.8</ele>
        <time>2021-09-02T11:02:19Z</time>
      </trkpt>
      <trkpt lat="43.40797" lon="2.4935">
        <ele>693.1</ele>
        <time>2021-09-02T11:03:05Z</time>
      </trkpt>
      <trkpt lat="43.40816" lon="2.4933">
        <ele>691.6</ele>
        <time>2021-09-02T11:03:39Z</time>
      </trkpt>
      <trkpt lat="43.40828" lon="2.49326">
        <ele>692.2</ele>
        <time>2021-09-02T11:04:28Z</time>
      </trkpt>
      <trkpt lat="43.40832" lon="2.49325">
        <ele>692.4</ele>
        <time>2021-09-02T11:04:30Z</time>
      </trkpt>
      <trkpt lat="43.40833" lon="2.49326">
        <ele>693</ele>
        <time>2021-09-02T11:04:33Z</time>
      </trkpt>
      <trkpt lat="43.4082" lon="2.49308">
        <ele>684</ele>
        <time>2021-09-02T11:05:02Z</time>
      </trkpt>
      <trkpt lat="43.40778" lon="2.49313">
        <ele>680.4</ele>
        <time>2021-09-02T11:05:34Z</time>
      </trkpt>
      <trkpt lat="43.40742" lon="2.49331">
        <ele>679.2</ele>
        <time>2021-09-02T11:06:04Z</time>
      </trkpt>
      <trkpt lat="43.40719" lon="2.49393">
        <ele>679.4</ele>
        <time>2021-09-02T11:06:35Z</time>
      </trkpt>
      <trkpt lat="43.40709" lon="2.49364">
        <ele>673.3</ele>
        <time>2021-09-02T11:07:09Z</time>
      </trkpt>
      <trkpt lat="43.40694" lon="2.49393">
        <ele>671.2</ele>
        <time>2021-09-02T11:07:39Z</time>
      </trkpt>
      <trkpt lat="43.40673" lon="2.49372">
        <ele>663.2</ele>
        <time>2021-09-02T11:08:10Z</time>
      </trkpt>
      <trkpt lat="43.40659" lon="2.4934">
        <ele>657.3</ele>
        <time>2021-09-02T11:08:40Z</time>
      </trkpt>
      <trkpt lat="43.40673" lon="2.49252">
        <ele>644.7</ele>
        <time>2021-09-02T11:09:40Z</time>
      </trkpt>
      <trkpt lat="43.40714" lon="2.49186">
        <ele>628.7</ele>
        <time>2021-09-02T11:10:35Z</time>
      </trkpt>
      <trkpt lat="43.40764" lon="2.49159">
        <ele>621.2</ele>
        <time>2021-09-02T11:11:34Z</time>
      </trkpt>
      <trkpt lat="43.40785" lon="2.49141">
        <ele>614.2</ele>
        <time>2021-09-02T11:12:04Z</time>
      </trkpt>
      <trkpt lat="43.4081" lon="2.4913">
        <ele>610.2</ele>
        <time>2021-09-02T11:12:34Z</time>
      </trkpt>
      <trkpt lat="43.40839" lon="2.49113">
        <ele>604.4</ele>
        <time>2021-09-02T11:13:06Z</time>
      </trkpt>
      <trkpt lat="43.40866" lon="2.491">
        <ele>603.4</ele>
        <time>2021-09-02T11:13:36Z</time>
      </trkpt>
      <trkpt lat="43.409" lon="2.49064">
        <ele>599.1</ele>
        <time>2021-09-02T11:14:06Z</time>
      </trkpt>
      <trkpt lat="43.40921" lon="2.49027">
        <ele>595.2</ele>
        <time>2021-09-02T11:14:30Z</time>
      </trkpt>
      <trkpt lat="43.40922" lon="2.49028">
        <ele>595.5</ele>
        <time>2021-09-02T11:14:34Z</time>
      </trkpt>
      <trkpt lat="43.40923" lon="2.49024">
        <ele>594.9</ele>
        <time>2021-09-02T11:14:36Z</time>
      </trkpt>
      <trkpt lat="43.40911" lon="2.48981">
        <ele>587.2</ele>
        <time>2021-09-02T11:15:06Z</time>
      </trkpt>
      <trkpt lat="43.40895" lon="2.48936">
        <ele>583.6</ele>
        <time>2021-09-02T11:15:36Z</time>
      </trkpt>
      <trkpt lat="43.40895" lon="2.48927">
        <ele>583.4</ele>
        <time>2021-09-02T11:16:06Z</time>
      </trkpt>
      <trkpt lat="43.40898" lon="2.48897">
        <ele>586.1</ele>
        <time>2021-09-02T11:16:36Z</time>
      </trkpt>
      <trkpt lat="43.40914" lon="2.48884">
        <ele>588.8</ele>
        <time>2021-09-02T11:17:06Z</time>
      </trkpt>
      <trkpt lat="43.40926" lon="2.48874">
        <ele>592.2</ele>
        <time>2021-09-02T11:17:36Z</time>
      </trkpt>
      <trkpt lat="43.4093" lon="2.48811">
        <ele>609.6</ele>
        <time>2021-09-02T11:19:05Z</time>
      </trkpt>
      <trkpt lat="43.40897" lon="2.48793">
        <ele>613.9</ele>
        <time>2021-09-02T11:19:35Z</time>
      </trkpt>
      <trkpt lat="43.40877" lon="2.48771">
        <ele>623.3</ele>
        <time>2021-09-02T11:20:05Z</time>
      </trkpt>
      <trkpt lat="43.4086" lon="2.48769">
        <ele>623.2</ele>
        <time>2021-09-02T11:20:35Z</time>
      </trkpt>
      <trkpt lat="43.40837" lon="2.48763">
        <ele>624.5</ele>
        <time>2021-09-02T11:21:05Z</time>
      </trkpt>
      <trkpt lat="43.40832" lon="2.48764">
        <ele>623.8</ele>
        <time>2021-09-02T11:21:35Z</time>
      </trkpt>
      <trkpt lat="43.40816" lon="2.48762">
        <ele>624.7</ele>
        <time>2021-09-02T11:22:05Z</time>
      </trkpt>
      <trkpt lat="43.40788" lon="2.48794">
        <ele>614.8</ele>
        <time>2021-09-02T11:22:35Z</time>
      </trkpt>
      <trkpt lat="43.40778" lon="2.48803">
        <ele>613.2</ele>
        <time>2021-09-02T11:23:05Z</time>
      </trkpt>
      <trkpt lat="43.40785" lon="2.4876">
        <ele>625.7</ele>
        <time>2021-09-02T11:23:35Z</time>
      </trkpt>
      <trkpt lat="43.40785" lon="2.48735">
        <ele>634.5</ele>
        <time>2021-09-02T11:24:05Z</time>
      </trkpt>
      <trkpt lat="43.40782" lon="2.48722">
        <ele>639.3</ele>
        <time>2021-09-02T11:24:30Z</time>
      </trkpt>
      <trkpt lat="43.40783" lon="2.48724">
        <ele>638.6</ele>
        <time>2021-09-02T11:24:34Z</time>
      </trkpt>
      <trkpt lat="43.40781" lon="2.48724">
        <ele>638.4</ele>
        <time>2021-09-02T11:24:35Z</time>
      </trkpt>
      <trkpt lat="43.40776" lon="2.48723">
        <ele>638.5</ele>
        <time>2021-09-02T11:25:05Z</time>
      </trkpt>
      <trkpt lat="43.40767" lon="2.48727">
        <ele>636.5</ele>
        <time>2021-09-02T11:26:53Z</time>
      </trkpt>
      <trkpt lat="43.40779" lon="2.48729">
        <ele>636.5</ele>
        <time>2021-09-02T11:27:23Z</time>
      </trkpt>
      <trkpt lat="43.40777" lon="2.48718">
        <ele>640.4</ele>
        <time>2021-09-02T11:27:53Z</time>
      </trkpt>
      <trkpt lat="43.40766" lon="2.48725">
        <ele>637.1</ele>
        <time>2021-09-02T11:28:23Z</time>
      </trkpt>
      <trkpt lat="43.40744" lon="2.4871">
        <ele>640.2</ele>
        <time>2021-09-02T11:28:57Z</time>
      </trkpt>
      <trkpt lat="43.40696" lon="2.48656">
        <ele>647.6</ele>
        <time>2021-09-02T11:29:52Z</time>
      </trkpt>
      <trkpt lat="43.40653" lon="2.48632">
        <ele>644.2</ele>
        <time>2021-09-02T11:30:27Z</time>
      </trkpt>
      <trkpt lat="43.40625" lon="2.48578">
        <ele>646.6</ele>
        <time>2021-09-02T11:31:18Z</time>
      </trkpt>
      <trkpt lat="43.40625" lon="2.4852">
        <ele>647.3</ele>
        <time>2021-09-02T11:31:49Z</time>
      </trkpt>
      <trkpt lat="43.40638" lon="2.48481">
        <ele>650.2</ele>
        <time>2021-09-02T11:32:21Z</time>
      </trkpt>
      <trkpt lat="43.40647" lon="2.48464">
        <ele>652.1</ele>
        <time>2021-09-02T11:32:55Z</time>
      </trkpt>
      <trkpt lat="43.40658" lon="2.48427">
        <ele>653.8</ele>
        <time>2021-09-02T11:35:14Z</time>
      </trkpt>
      <trkpt lat="43.40666" lon="2.48403">
        <ele>655.5</ele>
        <time>2021-09-02T11:35:44Z</time>
      </trkpt>
      <trkpt lat="43.40681" lon="2.48372">
        <ele>661.2</ele>
        <time>2021-09-02T11:36:28Z</time>
      </trkpt>
      <trkpt lat="43.40684" lon="2.48375">
        <ele>662.4</ele>
        <time>2021-09-02T11:40:42Z</time>
      </trkpt>
      <trkpt lat="43.40681" lon="2.48378">
        <ele>661.3</ele>
        <time>2021-09-02T11:41:28Z</time>
      </trkpt>
      <trkpt lat="43.40685" lon="2.48375">
        <ele>663</ele>
        <time>2021-09-02T11:42:19Z</time>
      </trkpt>
      <trkpt lat="43.40683" lon="2.48377">
        <ele>662.4</ele>
        <time>2021-09-02T11:43:20Z</time>
      </trkpt>
      <trkpt lat="43.40682" lon="2.48377">
        <ele>661.8</ele>
        <time>2021-09-02T11:45:15Z</time>
      </trkpt>
      <trkpt lat="43.40683" lon="2.48378">
        <ele>662.2</ele>
        <time>2021-09-02T11:45:15Z</time>
      </trkpt>
      <trkpt lat="43.40686" lon="2.4837">
        <ele>663.4</ele>
        <time>2021-09-02T11:46:54Z</time>
      </trkpt>
      <trkpt lat="43.4068" lon="2.48371">
        <ele>660.8</ele>
        <time>2021-09-02T11:47:24Z</time>
      </trkpt>
      <trkpt lat="43.4068" lon="2.48375">
        <ele>661</ele>
        <time>2021-09-02T11:49:11Z</time>
      </trkpt>
      <trkpt lat="43.40682" lon="2.48374">
        <ele>661.7</ele>
        <time>2021-09-02T11:51:26Z</time>
      </trkpt>
      <trkpt lat="43.40685" lon="2.48375">
        <ele>663</ele>
        <time>2021-09-02T11:51:56Z</time>
      </trkpt>
      <trkpt lat="43.40681" lon="2.48373">
        <ele>661.2</ele>
        <time>2021-09-02T11:52:57Z</time>
      </trkpt>
      <trkpt lat="43.40683" lon="2.48373">
        <ele>662.2</ele>
        <time>2021-09-02T11:53:56Z</time>
      </trkpt>
      <trkpt lat="43.40684" lon="2.48371">
        <ele>662.5</ele>
        <time>2021-09-02T11:54:26Z</time>
      </trkpt>
      <trkpt lat="43.40681" lon="2.48375">
        <ele>661.5</ele>
        <time>2021-09-02T11:56:25Z</time>
      </trkpt>
      <trkpt lat="43.40684" lon="2.48372">
        <ele>662.4</ele>
        <time>2021-09-02T11:58:25Z</time>
      </trkpt>
      <trkpt lat="43.40686" lon="2.4837">
        <ele>663.4</ele>
        <time>2021-09-02T11:58:55Z</time>
      </trkpt>
      <trkpt lat="43.40681" lon="2.48375">
        <ele>661.1</ele>
      </trkpt>
      <trkpt lat="43.40682" lon="2.48373">
        <ele>661.8</ele>
        <time>2021-09-02T11:59:25Z</time>
      </trkpt>
      <trkpt lat="43.40682" lon="2.48376">
        <ele>661.6</ele>
      </trkpt>
      <trkpt lat="43.40683" lon="2.48375">
        <ele>662.2</ele>
        <time>2021-09-02T12:00:19Z</time>
      </trkpt>
      <trkpt lat="43.4068" lon="2.48374">
        <ele>660.8</ele>
        <time>2021-09-02T12:00:51Z</time>
      </trkpt>
      <trkpt lat="43.40683" lon="2.48376">
        <ele>662.1</ele>
      </trkpt>
      <trkpt lat="43.4068" lon="2.48371">
        <ele>660.8</ele>
        <time>2021-09-02T12:01:27Z</time>
      </trkpt>
      <trkpt lat="43.40681" lon="2.48375">
        <ele>661.1</ele>
        <time>2021-09-02T12:01:57Z</time>
      </trkpt>
      <trkpt lat="43.40682" lon="2.4837">
        <ele>661.6</ele>
        <time>2021-09-02T12:02:54Z</time>
      </trkpt>
      <trkpt lat="43.4068" lon="2.48373">
        <ele>660.8</ele>
        <time>2021-09-02T12:03:28Z</time>
      </trkpt>
      <trkpt lat="43.40681" lon="2.48374">
        <ele>661.1</ele>
        <time>2021-09-02T12:04:02Z</time>
      </trkpt>
      <trkpt lat="43.40683" lon="2.48374">
        <ele>662.1</ele>
        <time>2021-09-02T12:05:01Z</time>
      </trkpt>
      <trkpt lat="43.40682" lon="2.48374">
        <ele>661.5</ele>
        <time>2021-09-02T12:05:53Z</time>
      </trkpt>
      <trkpt lat="43.40686" lon="2.48371">
        <ele>663.4</ele>
        <time>2021-09-02T12:06:24Z</time>
      </trkpt>
      <trkpt lat="43.40676" lon="2.48382">
        <ele>659.2</ele>
        <time>2021-09-02T12:06:54Z</time>
      </trkpt>
      <trkpt lat="43.40662" lon="2.48427">
        <ele>655.1</ele>
        <time>2021-09-02T12:07:24Z</time>
      </trkpt>
      <trkpt lat="43.40638" lon="2.48464">
        <ele>649.5</ele>
        <time>2021-09-02T12:07:54Z</time>
      </trkpt>
      <trkpt lat="43.40626" lon="2.48506">
        <ele>647.7</ele>
        <time>2021-09-02T12:08:15Z</time>
      </trkpt>
      <trkpt lat="43.40627" lon="2.48509">
        <ele>647.9</ele>
        <time>2021-09-02T12:08:24Z</time>
      </trkpt>
      <trkpt lat="43.40627" lon="2.48507">
        <ele>648</ele>
        <time>2021-09-02T12:08:24Z</time>
      </trkpt>
      <trkpt lat="43.40623" lon="2.48582">
        <ele>646.1</ele>
        <time>2021-09-02T12:09:06Z</time>
      </trkpt>
      <trkpt lat="43.40569" lon="2.48614">
        <ele>632.1</ele>
        <time>2021-09-02T12:10:02Z</time>
      </trkpt>
      <trkpt lat="43.40526" lon="2.48634">
        <ele>621.4</ele>
        <time>2021-09-02T12:10:50Z</time>
      </trkpt>
      <trkpt lat="43.40511" lon="2.48639">
        <ele>618</ele>
        <time>2021-09-02T12:11:31Z</time>
      </trkpt>
      <trkpt lat="43.40483" lon="2.48659">
        <ele>611.5</ele>
        <time>2021-09-02T12:12:23Z</time>
      </trkpt>
      <trkpt lat="43.40469" lon="2.4867">
        <ele>608.2</ele>
        <time>2021-09-02T12:12:53Z</time>
      </trkpt>
      <trkpt lat="43.40457" lon="2.48679">
        <ele>604.2</ele>
        <time>2021-09-02T12:13:23Z</time>
      </trkpt>
      <trkpt lat="43.40445" lon="2.48696">
        <ele>599.1</ele>
        <time>2021-09-02T12:13:53Z</time>
      </trkpt>
      <trkpt lat="43.40427" lon="2.48701">
        <ele>594.7</ele>
        <time>2021-09-02T12:14:23Z</time>
      </trkpt>
      <trkpt lat="43.40426" lon="2.48698">
        <ele>595</ele>
        <time>2021-09-02T12:14:58Z</time>
      </trkpt>
      <trkpt lat="43.40401" lon="2.48708">
        <ele>588.1</ele>
        <time>2021-09-02T12:15:28Z</time>
      </trkpt>
      <trkpt lat="43.40363" lon="2.48737">
        <ele>579.3</ele>
        <time>2021-09-02T12:15:58Z</time>
      </trkpt>
      <trkpt lat="43.40342" lon="2.48759">
        <ele>575</ele>
        <time>2021-09-02T12:16:28Z</time>
      </trkpt>
      <trkpt lat="43.40323" lon="2.48783">
        <ele>565.7</ele>
        <time>2021-09-02T12:16:58Z</time>
      </trkpt>
      <trkpt lat="43.40309" lon="2.48824">
        <ele>554.4</ele>
        <time>2021-09-02T12:17:28Z</time>
      </trkpt>
      <trkpt lat="43.40292" lon="2.48851">
        <ele>544.7</ele>
        <time>2021-09-02T12:17:58Z</time>
      </trkpt>
      <trkpt lat="43.40284" lon="2.48874">
        <ele>538.6</ele>
        <time>2021-09-02T12:18:15Z</time>
      </trkpt>
      <trkpt lat="43.40284" lon="2.4889">
        <ele>535.6</ele>
        <time>2021-09-02T12:18:24Z</time>
      </trkpt>
      <trkpt lat="43.40285" lon="2.48902">
        <ele>533.3</ele>
        <time>2021-09-02T12:18:28Z</time>
      </trkpt>
      <trkpt lat="43.40255" lon="2.48897">
        <ele>531</ele>
        <time>2021-09-02T12:18:58Z</time>
      </trkpt>
      <trkpt lat="43.40253" lon="2.48911">
        <ele>528.9</ele>
        <time>2021-09-02T12:19:28Z</time>
      </trkpt>
      <trkpt lat="43.40241" lon="2.48922">
        <ele>525.1</ele>
      </trkpt>
      <trkpt lat="43.40228" lon="2.4892">
        <ele>522.2</ele>
        <time>2021-09-02T12:19:58Z</time>
      </trkpt>
      <trkpt lat="43.4022" lon="2.48967">
        <ele>517</ele>
        <time>2021-09-02T12:20:28Z</time>
      </trkpt>
      <trkpt lat="43.40214" lon="2.48991">
        <ele>514.4</ele>
        <time>2021-09-02T12:20:58Z</time>
      </trkpt>
      <trkpt lat="43.40212" lon="2.49009">
        <ele>514.2</ele>
        <time>2021-09-02T12:21:30Z</time>
      </trkpt>
      <trkpt lat="43.4023" lon="2.49016">
        <ele>517.7</ele>
        <time>2021-09-02T12:22:00Z</time>
      </trkpt>
      <trkpt lat="43.40235" lon="2.49007">
        <ele>517.5</ele>
        <time>2021-09-02T12:22:33Z</time>
      </trkpt>
      <trkpt lat="43.40254" lon="2.48983">
        <ele>521.5</ele>
        <time>2021-09-02T12:23:31Z</time>
      </trkpt>
      <trkpt lat="43.40266" lon="2.49003">
        <ele>522.7</ele>
        <time>2021-09-02T12:24:24Z</time>
      </trkpt>
      <trkpt lat="43.40266" lon="2.49018">
        <ele>524.7</ele>
        <time>2021-09-02T12:24:54Z</time>
      </trkpt>
      <trkpt lat="43.40286" lon="2.4904">
        <ele>533.4</ele>
        <time>2021-09-02T12:25:25Z</time>
      </trkpt>
      <trkpt lat="43.40285" lon="2.49043">
        <ele>533.6</ele>
        <time>2021-09-02T12:25:55Z</time>
      </trkpt>
      <trkpt lat="43.40279" lon="2.49076">
        <ele>537.2</ele>
        <time>2021-09-02T12:26:25Z</time>
      </trkpt>
      <trkpt lat="43.4029" lon="2.49086">
        <ele>542.9</ele>
        <time>2021-09-02T12:26:55Z</time>
      </trkpt>
      <trkpt lat="43.40308" lon="2.49092">
        <ele>550.7</ele>
        <time>2021-09-02T12:27:25Z</time>
      </trkpt>
      <trkpt lat="43.40323" lon="2.49096">
        <ele>557.1</ele>
        <time>2021-09-02T12:27:56Z</time>
      </trkpt>
      <trkpt lat="43.4034" lon="2.49096">
        <ele>563.2</ele>
        <time>2021-09-02T12:28:15Z</time>
      </trkpt>
      <trkpt lat="43.4034" lon="2.49097">
        <ele>563.5</ele>
        <time>2021-09-02T12:28:25Z</time>
      </trkpt>
      <trkpt lat="43.40341" lon="2.49096">
        <ele>563.6</ele>
        <time>2021-09-02T12:28:26Z</time>
      </trkpt>
      <trkpt lat="43.40362" lon="2.49093">
        <ele>570.3</ele>
        <time>2021-09-02T12:28:57Z</time>
      </trkpt>
      <trkpt lat="43.40375" lon="2.49091">
        <ele>574.3</ele>
        <time>2021-09-02T12:29:28Z</time>
      </trkpt>
      <trkpt lat="43.40395" lon="2.49074">
        <ele>575.9</ele>
        <time>2021-09-02T12:29:58Z</time>
      </trkpt>
      <trkpt lat="43.40409" lon="2.49078">
        <ele>582.2</ele>
        <time>2021-09-02T12:30:28Z</time>
      </trkpt>
      <trkpt lat="43.40417" lon="2.49081">
        <ele>586</ele>
        <time>2021-09-02T12:30:58Z</time>
      </trkpt>
      <trkpt lat="43.40432" lon="2.49087">
        <ele>588.7</ele>
        <time>2021-09-02T12:31:28Z</time>
      </trkpt>
      <trkpt lat="43.40451" lon="2.49096">
        <ele>591.9</ele>
        <time>2021-09-02T12:31:59Z</time>
      </trkpt>
      <trkpt lat="43.40463" lon="2.49107">
        <ele>595.3</ele>
        <time>2021-09-02T12:32:29Z</time>
      </trkpt>
      <trkpt lat="43.40469" lon="2.49113">
        <ele>597.2</ele>
        <time>2021-09-02T12:32:59Z</time>
      </trkpt>
      <trkpt lat="43.40479" lon="2.49125">
        <ele>600.9</ele>
        <time>2021-09-02T12:33:29Z</time>
      </trkpt>
      <trkpt lat="43.40477" lon="2.4914">
        <ele>604.7</ele>
        <time>2021-09-02T12:33:59Z</time>
      </trkpt>
      <trkpt lat="43.40456" lon="2.4914">
        <ele>603.4</ele>
        <time>2021-09-02T12:34:29Z</time>
      </trkpt>
      <trkpt lat="43.40429" lon="2.49164">
        <ele>608.1</ele>
        <time>2021-09-02T12:34:59Z</time>
      </trkpt>
      <trkpt lat="43.40431" lon="2.49163">
        <ele>607.9</ele>
        <time>2021-09-02T12:35:29Z</time>
      </trkpt>
      <trkpt lat="43.40409" lon="2.49187">
        <ele>608.2</ele>
        <time>2021-09-02T12:35:59Z</time>
      </trkpt>
      <trkpt lat="43.40385" lon="2.49217">
        <ele>604.4</ele>
        <time>2021-09-02T12:36:29Z</time>
      </trkpt>
      <trkpt lat="43.40376" lon="2.4923">
        <ele>603.5</ele>
        <time>2021-09-02T12:36:59Z</time>
      </trkpt>
      <trkpt lat="43.40381" lon="2.49227">
        <ele>604.7</ele>
        <time>2021-09-02T12:37:29Z</time>
      </trkpt>
      <trkpt lat="43.40375" lon="2.4926">
        <ele>607.9</ele>
        <time>2021-09-02T12:37:59Z</time>
      </trkpt>
      <trkpt lat="43.40369" lon="2.49293">
        <ele>611</ele>
        <time>2021-09-02T12:38:15Z</time>
      </trkpt>
      <trkpt lat="43.40369" lon="2.49294">
        <ele>611.1</ele>
        <time>2021-09-02T12:38:26Z</time>
      </trkpt>
      <trkpt lat="43.4037" lon="2.49303">
        <ele>612.7</ele>
        <time>2021-09-02T12:38:59Z</time>
      </trkpt>
      <trkpt lat="43.40358" lon="2.49311">
        <ele>610.7</ele>
        <time>2021-09-02T12:39:29Z</time>
      </trkpt>
      <trkpt lat="43.4035" lon="2.49302">
        <ele>607</ele>
        <time>2021-09-02T12:40:02Z</time>
      </trkpt>
      <trkpt lat="43.40337" lon="2.49319">
        <ele>606.4</ele>
        <time>2021-09-02T12:40:32Z</time>
      </trkpt>
      <trkpt lat="43.403" lon="2.4936">
        <ele>605.5</ele>
        <time>2021-09-02T12:41:30Z</time>
      </trkpt>
      <trkpt lat="43.40274" lon="2.49387">
        <ele>606.1</ele>
        <time>2021-09-02T12:42:00Z</time>
      </trkpt>
      <trkpt lat="43.40246" lon="2.4941">
        <ele>606</ele>
        <time>2021-09-02T12:42:30Z</time>
      </trkpt>
      <trkpt lat="43.40218" lon="2.49427">
        <ele>600.6</ele>
        <time>2021-09-02T12:43:00Z</time>
      </trkpt>
      <trkpt lat="43.40192" lon="2.49463">
        <ele>596.9</ele>
        <time>2021-09-02T12:43:30Z</time>
      </trkpt>
      <trkpt lat="43.40183" lon="2.4951">
        <ele>599.1</ele>
        <time>2021-09-02T12:44:00Z</time>
      </trkpt>
      <trkpt lat="43.40187" lon="2.49557">
        <ele>604.2</ele>
        <time>2021-09-02T12:44:30Z</time>
      </trkpt>
      <trkpt lat="43.40202" lon="2.49612">
        <ele>615.3</ele>
        <time>2021-09-02T12:45:00Z</time>
      </trkpt>
      <trkpt lat="43.40194" lon="2.4963">
        <ele>616.1</ele>
        <time>2021-09-02T12:45:32Z</time>
      </trkpt>
      <trkpt lat="43.40181" lon="2.49618">
        <ele>611</ele>
        <time>2021-09-02T12:46:02Z</time>
      </trkpt>
      <trkpt lat="43.40148" lon="2.49612">
        <ele>608.6</ele>
        <time>2021-09-02T12:46:34Z</time>
      </trkpt>
      <trkpt lat="43.40113" lon="2.4963">
        <ele>618.1</ele>
      </trkpt>
      <trkpt lat="43.40102" lon="2.49601">
        <ele>611.8</ele>
        <time>2021-09-02T12:47:34Z</time>
      </trkpt>
      <trkpt lat="43.40053" lon="2.49532">
        <ele>611.2</ele>
        <time>2021-09-02T12:48:15Z</time>
      </trkpt>
      <trkpt lat="43.40047" lon="2.49508">
        <ele>609.9</ele>
        <time>2021-09-02T12:48:26Z</time>
      </trkpt>
      <trkpt lat="43.40052" lon="2.49472">
        <ele>601.1</ele>
        <time>2021-09-02T12:49:09Z</time>
      </trkpt>
      <trkpt lat="43.40045" lon="2.494">
        <ele>595.5</ele>
        <time>2021-09-02T12:49:55Z</time>
      </trkpt>
      <trkpt lat="43.40029" lon="2.49355">
        <ele>598.6</ele>
        <time>2021-09-02T12:50:27Z</time>
      </trkpt>
      <trkpt lat="43.40034" lon="2.49305">
        <ele>591.3</ele>
        <time>2021-09-02T12:51:01Z</time>
      </trkpt>
      <trkpt lat="43.40024" lon="2.49262">
        <ele>593.7</ele>
        <time>2021-09-02T12:51:31Z</time>
      </trkpt>
      <trkpt lat="43.40029" lon="2.49222">
        <ele>590</ele>
        <time>2021-09-02T12:52:02Z</time>
      </trkpt>
      <trkpt lat="43.40029" lon="2.49171">
        <ele>589.4</ele>
        <time>2021-09-02T12:52:32Z</time>
      </trkpt>
      <trkpt lat="43.40028" lon="2.49123">
        <ele>584.1</ele>
        <time>2021-09-02T12:53:02Z</time>
      </trkpt>
      <trkpt lat="43.39996" lon="2.49071">
        <ele>596.2</ele>
        <time>2021-09-02T12:53:32Z</time>
      </trkpt>
      <trkpt lat="43.4" lon="2.49026">
        <ele>590.9</ele>
        <time>2021-09-02T12:54:15Z</time>
      </trkpt>
      <trkpt lat="43.40008" lon="2.4896">
        <ele>582.3</ele>
        <time>2021-09-02T12:54:56Z</time>
      </trkpt>
      <trkpt lat="43.4" lon="2.48908">
        <ele>583.9</ele>
        <time>2021-09-02T12:55:26Z</time>
      </trkpt>
      <trkpt lat="43.39989" lon="2.48872">
        <ele>584.6</ele>
        <time>2021-09-02T12:56:06Z</time>
      </trkpt>
      <trkpt lat="43.39961" lon="2.48804">
        <ele>587.3</ele>
        <time>2021-09-02T12:56:54Z</time>
      </trkpt>
      <trkpt lat="43.39939" lon="2.48754">
        <ele>588.7</ele>
        <time>2021-09-02T12:57:27Z</time>
      </trkpt>
      <trkpt lat="43.39924" lon="2.48709">
        <ele>586.5</ele>
        <time>2021-09-02T12:57:57Z</time>
      </trkpt>
      <trkpt lat="43.39908" lon="2.48662">
        <ele>583.7</ele>
        <time>2021-09-02T12:58:15Z</time>
      </trkpt>
      <trkpt lat="43.39908" lon="2.48664">
        <ele>584.2</ele>
        <time>2021-09-02T12:58:26Z</time>
      </trkpt>
      <trkpt lat="43.39908" lon="2.48662">
        <ele>583.7</ele>
        <time>2021-09-02T12:58:27Z</time>
      </trkpt>
      <trkpt lat="43.39886" lon="2.48611">
        <ele>581</ele>
        <time>2021-09-02T12:58:57Z</time>
      </trkpt>
      <trkpt lat="43.39869" lon="2.48563">
        <ele>576.7</ele>
        <time>2021-09-02T12:59:27Z</time>
      </trkpt>
      <trkpt lat="43.39863" lon="2.48564">
        <ele>579.5</ele>
        <time>2021-09-02T12:59:57Z</time>
      </trkpt>
      <trkpt lat="43.39851" lon="2.48521">
        <ele>574</ele>
        <time>2021-09-02T13:00:27Z</time>
      </trkpt>
      <trkpt lat="43.39836" lon="2.48478">
        <ele>568.9</ele>
        <time>2021-09-02T13:00:57Z</time>
      </trkpt>
      <trkpt lat="43.39821" lon="2.48435">
        <ele>563.3</ele>
        <time>2021-09-02T13:01:27Z</time>
      </trkpt>
      <trkpt lat="43.39812" lon="2.48411">
        <ele>560.9</ele>
        <time>2021-09-02T13:01:57Z</time>
      </trkpt>
      <trkpt lat="43.39797" lon="2.4839">
        <ele>562.4</ele>
        <time>2021-09-02T13:02:27Z</time>
      </trkpt>
      <trkpt lat="43.39779" lon="2.48359">
        <ele>562.2</ele>
        <time>2021-09-02T13:02:57Z</time>
      </trkpt>
      <trkpt lat="43.39754" lon="2.48333">
        <ele>565.4</ele>
        <time>2021-09-02T13:03:27Z</time>
      </trkpt>
      <trkpt lat="43.39688" lon="2.48283">
        <ele>575.6</ele>
        <time>2021-09-02T13:04:39Z</time>
      </trkpt>
      <trkpt lat="43.39664" lon="2.48255">
        <ele>576</ele>
        <time>2021-09-02T13:05:09Z</time>
      </trkpt>
      <trkpt lat="43.39643" lon="2.48233">
        <ele>575.6</ele>
        <time>2021-09-02T13:05:39Z</time>
      </trkpt>
      <trkpt lat="43.39609" lon="2.4822">
        <ele>580.8</ele>
        <time>2021-09-02T13:06:09Z</time>
      </trkpt>
      <trkpt lat="43.39577" lon="2.48211">
        <ele>585.7</ele>
        <time>2021-09-02T13:06:39Z</time>
      </trkpt>
      <trkpt lat="43.39547" lon="2.48202">
        <ele>587.3</ele>
        <time>2021-09-02T13:07:09Z</time>
      </trkpt>
      <trkpt lat="43.39517" lon="2.48202">
        <ele>591.4</ele>
        <time>2021-09-02T13:07:39Z</time>
      </trkpt>
      <trkpt lat="43.39486" lon="2.48212">
        <ele>600.9</ele>
        <time>2021-09-02T13:08:09Z</time>
      </trkpt>
      <trkpt lat="43.39481" lon="2.4821">
        <ele>601.5</ele>
        <time>2021-09-02T13:08:15Z</time>
      </trkpt>
      <trkpt lat="43.39481" lon="2.48211">
        <ele>601.8</ele>
        <time>2021-09-02T13:08:27Z</time>
      </trkpt>
      <trkpt lat="43.39467" lon="2.48206">
        <ele>603.7</ele>
        <time>2021-09-02T13:08:39Z</time>
      </trkpt>
      <trkpt lat="43.39404" lon="2.48184">
        <ele>615.5</ele>
        <time>2021-09-02T13:10:07Z</time>
      </trkpt>
      <trkpt lat="43.39392" lon="2.48153">
        <ele>614.4</ele>
        <time>2021-09-02T13:10:37Z</time>
      </trkpt>
      <trkpt lat="43.39385" lon="2.48113">
        <ele>613.9</ele>
        <time>2021-09-02T13:11:07Z</time>
      </trkpt>
      <trkpt lat="43.39375" lon="2.48087">
        <ele>615.8</ele>
        <time>2021-09-02T13:11:37Z</time>
      </trkpt>
      <trkpt lat="43.39367" lon="2.48052">
        <ele>616</ele>
        <time>2021-09-02T13:12:07Z</time>
      </trkpt>
      <trkpt lat="43.3935" lon="2.48033">
        <ele>620.8</ele>
        <time>2021-09-02T13:12:39Z</time>
      </trkpt>
      <trkpt lat="43.39327" lon="2.48021">
        <ele>627.3</ele>
        <time>2021-09-02T13:13:09Z</time>
      </trkpt>
      <trkpt lat="43.39318" lon="2.48022">
        <ele>629.8</ele>
        <time>2021-09-02T13:13:59Z</time>
      </trkpt>
      <trkpt lat="43.39308" lon="2.48023">
        <ele>632.3</ele>
        <time>2021-09-02T13:14:29Z</time>
      </trkpt>
      <trkpt lat="43.39288" lon="2.48012">
        <ele>635.2</ele>
        <time>2021-09-02T13:14:59Z</time>
      </trkpt>
      <trkpt lat="43.39276" lon="2.48007">
        <ele>636.9</ele>
        <time>2021-09-02T13:15:29Z</time>
      </trkpt>
      <trkpt lat="43.39282" lon="2.48003">
        <ele>634.7</ele>
        <time>2021-09-02T13:15:59Z</time>
      </trkpt>
      <trkpt lat="43.39281" lon="2.48005">
        <ele>635.3</ele>
        <time>2021-09-02T13:17:18Z</time>
      </trkpt>
      <trkpt lat="43.39253" lon="2.48008">
        <ele>642.3</ele>
        <time>2021-09-02T13:17:48Z</time>
      </trkpt>
      <trkpt lat="43.39248" lon="2.48008">
        <ele>643.3</ele>
        <time>2021-09-02T13:18:15Z</time>
      </trkpt>
      <trkpt lat="43.39248" lon="2.48009">
        <ele>643.5</ele>
        <time>2021-09-02T13:18:18Z</time>
      </trkpt>
      <trkpt lat="43.39248" lon="2.48009">
        <ele>643.5</ele>
        <time>2021-09-02T13:18:27Z</time>
      </trkpt>
      <trkpt lat="43.39235" lon="2.48">
        <ele>643.2</ele>
        <time>2021-09-02T13:18:48Z</time>
      </trkpt>
      <trkpt lat="43.39173" lon="2.4797">
        <ele>642.5</ele>
        <time>2021-09-02T13:20:08Z</time>
      </trkpt>
      <trkpt lat="43.39145" lon="2.47954">
        <ele>638.9</ele>
        <time>2021-09-02T13:20:43Z</time>
      </trkpt>
      <trkpt lat="43.39137" lon="2.47944">
        <ele>636.8</ele>
        <time>2021-09-02T13:21:32Z</time>
      </trkpt>
      <trkpt lat="43.39129" lon="2.47936">
        <ele>635.5</ele>
        <time>2021-09-02T13:22:03Z</time>
      </trkpt>
      <trkpt lat="43.3913" lon="2.47935">
        <ele>635.2</ele>
        <time>2021-09-02T13:22:33Z</time>
      </trkpt>
      <trkpt lat="43.39109" lon="2.47902">
        <ele>630.8</ele>
        <time>2021-09-02T13:23:09Z</time>
      </trkpt>
      <trkpt lat="43.39093" lon="2.4788">
        <ele>629.6</ele>
        <time>2021-09-02T13:23:39Z</time>
      </trkpt>
      <trkpt lat="43.39089" lon="2.47874">
        <ele>629.5</ele>
        <time>2021-09-02T13:24:09Z</time>
      </trkpt>
      <trkpt lat="43.39078" lon="2.47875">
        <ele>630.7</ele>
        <time>2021-09-02T13:24:39Z</time>
      </trkpt>
      <trkpt lat="43.39066" lon="2.47875">
        <ele>630.1</ele>
        <time>2021-09-02T13:25:09Z</time>
      </trkpt>
      <trkpt lat="43.3905" lon="2.47844">
        <ele>627</ele>
        <time>2021-09-02T13:25:39Z</time>
      </trkpt>
      <trkpt lat="43.39047" lon="2.47828">
        <ele>626.1</ele>
        <time>2021-09-02T13:26:09Z</time>
      </trkpt>
      <trkpt lat="43.39038" lon="2.47811">
        <ele>626.1</ele>
        <time>2021-09-02T13:26:39Z</time>
      </trkpt>
      <trkpt lat="43.39008" lon="2.47809">
        <ele>628.8</ele>
        <time>2021-09-02T13:27:09Z</time>
      </trkpt>
      <trkpt lat="43.38983" lon="2.47815">
        <ele>626.3</ele>
        <time>2021-09-02T13:27:39Z</time>
      </trkpt>
      <trkpt lat="43.38962" lon="2.47835">
        <ele>620.5</ele>
        <time>2021-09-02T13:28:10Z</time>
      </trkpt>
      <trkpt lat="43.38951" lon="2.47833">
        <ele>618.6</ele>
        <time>2021-09-02T13:28:15Z</time>
      </trkpt>
      <trkpt lat="43.38945" lon="2.47848">
        <ele>615.8</ele>
        <time>2021-09-02T13:28:28Z</time>
      </trkpt>
      <trkpt lat="43.3893" lon="2.47842">
        <ele>613.5</ele>
        <time>2021-09-02T13:29:06Z</time>
      </trkpt>
      <trkpt lat="43.38901" lon="2.47819">
        <ele>610.8</ele>
        <time>2021-09-02T13:29:36Z</time>
      </trkpt>
      <trkpt lat="43.38866" lon="2.47789">
        <ele>609.1</ele>
        <time>2021-09-02T13:30:07Z</time>
      </trkpt>
      <trkpt lat="43.38829" lon="2.4777">
        <ele>606.1</ele>
        <time>2021-09-02T13:30:39Z</time>
      </trkpt>
      <trkpt lat="43.38812" lon="2.47766">
        <ele>605</ele>
        <time>2021-09-02T13:31:09Z</time>
      </trkpt>
      <trkpt lat="43.38831" lon="2.47783">
        <ele>602.9</ele>
        <time>2021-09-02T13:31:39Z</time>
      </trkpt>
      <trkpt lat="43.38864" lon="2.47815">
        <ele>602.5</ele>
        <time>2021-09-02T13:32:10Z</time>
      </trkpt>
      <trkpt lat="43.38893" lon="2.47848">
        <ele>603.6</ele>
        <time>2021-09-02T13:32:40Z</time>
      </trkpt>
      <trkpt lat="43.38904" lon="2.47891">
        <ele>600.4</ele>
        <time>2021-09-02T13:33:10Z</time>
      </trkpt>
      <trkpt lat="43.38874" lon="2.47911">
        <ele>589.6</ele>
        <time>2021-09-02T13:33:40Z</time>
      </trkpt>
      <trkpt lat="43.38875" lon="2.47911">
        <ele>589.8</ele>
        <time>2021-09-02T13:34:11Z</time>
      </trkpt>
      <trkpt lat="43.38874" lon="2.4794">
        <ele>586.9</ele>
        <time>2021-09-02T13:34:41Z</time>
      </trkpt>
      <trkpt lat="43.38876" lon="2.47942">
        <ele>587.3</ele>
        <time>2021-09-02T13:37:08Z</time>
      </trkpt>
      <trkpt lat="43.38875" lon="2.47944">
        <ele>586.9</ele>
        <time>2021-09-02T13:37:39Z</time>
      </trkpt>
      <trkpt lat="43.38875" lon="2.47941">
        <ele>587.1</ele>
        <time>2021-09-02T13:38:15Z</time>
      </trkpt>
      <trkpt lat="43.38876" lon="2.47942">
        <ele>587.3</ele>
        <time>2021-09-02T13:38:26Z</time>
      </trkpt>
      <trkpt lat="43.38876" lon="2.47942">
        <ele>587.3</ele>
        <time>2021-09-02T13:38:29Z</time>
      </trkpt>
      <trkpt lat="43.38875" lon="2.47946">
        <ele>586.7</ele>
        <time>2021-09-02T13:39:07Z</time>
      </trkpt>
      <trkpt lat="43.38878" lon="2.4795">
        <ele>587.2</ele>
        <time>2021-09-02T13:39:39Z</time>
      </trkpt>
      <trkpt lat="43.38888" lon="2.47998">
        <ele>586.2</ele>
        <time>2021-09-02T13:40:09Z</time>
      </trkpt>
      <trkpt lat="43.38864" lon="2.47995">
        <ele>579.9</ele>
        <time>2021-09-02T13:40:39Z</time>
      </trkpt>
      <trkpt lat="43.38847" lon="2.47984">
        <ele>576.1</ele>
        <time>2021-09-02T13:41:09Z</time>
      </trkpt>
      <trkpt lat="43.38858" lon="2.48017">
        <ele>576.4</ele>
        <time>2021-09-02T13:41:39Z</time>
      </trkpt>
      <trkpt lat="43.38849" lon="2.48054">
        <ele>570.6</ele>
        <time>2021-09-02T13:42:09Z</time>
      </trkpt>
      <trkpt lat="43.38835" lon="2.48014">
        <ele>570.1</ele>
        <time>2021-09-02T13:42:42Z</time>
      </trkpt>
      <trkpt lat="43.38822" lon="2.47991">
        <ele>568.8</ele>
        <time>2021-09-02T13:43:12Z</time>
      </trkpt>
      <trkpt lat="43.38819" lon="2.47993">
        <ele>567.8</ele>
        <time>2021-09-02T13:43:42Z</time>
      </trkpt>
      <trkpt lat="43.38833" lon="2.4802">
        <ele>569</ele>
        <time>2021-09-02T13:44:12Z</time>
      </trkpt>
      <trkpt lat="43.38841" lon="2.48059">
        <ele>567.7</ele>
        <time>2021-09-02T13:45:11Z</time>
      </trkpt>
      <trkpt lat="43.38836" lon="2.48045">
        <ele>567.5</ele>
        <time>2021-09-02T13:45:41Z</time>
      </trkpt>
      <trkpt lat="43.38824" lon="2.48009">
        <ele>567.6</ele>
        <time>2021-09-02T13:46:11Z</time>
      </trkpt>
      <trkpt lat="43.38813" lon="2.47967">
        <ele>568.7</ele>
        <time>2021-09-02T13:46:41Z</time>
      </trkpt>
      <trkpt lat="43.38789" lon="2.47928">
        <ele>566.7</ele>
        <time>2021-09-02T13:47:11Z</time>
      </trkpt>
      <trkpt lat="43.38764" lon="2.479">
        <ele>565.3</ele>
        <time>2021-09-02T13:47:41Z</time>
      </trkpt>
      <trkpt lat="43.38756" lon="2.47886">
        <ele>566.2</ele>
        <time>2021-09-02T13:48:11Z</time>
      </trkpt>
      <trkpt lat="43.38739" lon="2.47873">
        <ele>565.7</ele>
        <time>2021-09-02T13:48:15Z</time>
      </trkpt>
      <trkpt lat="43.3874" lon="2.47875">
        <ele>565.4</ele>
        <time>2021-09-02T13:48:29Z</time>
      </trkpt>
      <trkpt lat="43.38727" lon="2.47868">
        <ele>564.9</ele>
        <time>2021-09-02T13:48:41Z</time>
      </trkpt>
      <trkpt lat="43.38691" lon="2.47856">
        <ele>562.4</ele>
        <time>2021-09-02T13:49:11Z</time>
      </trkpt>
      <trkpt lat="43.38651" lon="2.4784">
        <ele>561.1</ele>
        <time>2021-09-02T13:49:41Z</time>
      </trkpt>
      <trkpt lat="43.38605" lon="2.47835">
        <ele>556.3</ele>
        <time>2021-09-02T13:50:12Z</time>
      </trkpt>
      <trkpt lat="43.38584" lon="2.47835">
        <ele>553.5</ele>
        <time>2021-09-02T13:50:42Z</time>
      </trkpt>
      <trkpt lat="43.38556" lon="2.47829">
        <ele>549</ele>
        <time>2021-09-02T13:51:12Z</time>
      </trkpt>
      <trkpt lat="43.38528" lon="2.47802">
        <ele>550.2</ele>
        <time>2021-09-02T13:51:42Z</time>
      </trkpt>
      <trkpt lat="43.38528" lon="2.47797">
        <ele>551.6</ele>
        <time>2021-09-02T13:52:12Z</time>
      </trkpt>
      <trkpt lat="43.38499" lon="2.47784">
        <ele>548.3</ele>
        <time>2021-09-02T13:52:42Z</time>
      </trkpt>
      <trkpt lat="43.38461" lon="2.47783">
        <ele>534.7</ele>
        <time>2021-09-02T13:53:12Z</time>
      </trkpt>
      <trkpt lat="43.38443" lon="2.47768">
        <ele>530.8</ele>
      </trkpt>
      <trkpt lat="43.38437" lon="2.47739">
        <ele>532.4</ele>
        <time>2021-09-02T13:53:42Z</time>
      </trkpt>
      <trkpt lat="43.38431" lon="2.47685">
        <ele>533.3</ele>
        <time>2021-09-02T13:54:12Z</time>
      </trkpt>
      <trkpt lat="43.38427" lon="2.47627">
        <ele>530.6</ele>
        <time>2021-09-02T13:54:42Z</time>
      </trkpt>
      <trkpt lat="43.38426" lon="2.47571">
        <ele>526.9</ele>
        <time>2021-09-02T13:55:12Z</time>
      </trkpt>
      <trkpt lat="43.3843" lon="2.47517">
        <ele>524.6</ele>
        <time>2021-09-02T13:55:42Z</time>
      </trkpt>
      <trkpt lat="43.38428" lon="2.47459">
        <ele>520.4</ele>
        <time>2021-09-02T13:56:12Z</time>
      </trkpt>
      <trkpt lat="43.38418" lon="2.47405">
        <ele>513.7</ele>
        <time>2021-09-02T13:56:42Z</time>
      </trkpt>
      <trkpt lat="43.38416" lon="2.47459">
        <ele>514.7</ele>
        <time>2021-09-02T13:57:12Z</time>
      </trkpt>
      <trkpt lat="43.38408" lon="2.47512">
        <ele>512.1</ele>
        <time>2021-09-02T13:57:42Z</time>
      </trkpt>
      <trkpt lat="43.38394" lon="2.47563">
        <ele>508.9</ele>
        <time>2021-09-02T13:58:12Z</time>
      </trkpt>
      <trkpt lat="43.38383" lon="2.47592">
        <ele>505.1</ele>
        <time>2021-09-02T13:58:15Z</time>
      </trkpt>
      <trkpt lat="43.38383" lon="2.47592">
        <ele>505.1</ele>
        <time>2021-09-02T13:58:29Z</time>
      </trkpt>
      <trkpt lat="43.38378" lon="2.47615">
        <ele>502.9</ele>
        <time>2021-09-02T13:58:42Z</time>
      </trkpt>
      <trkpt lat="43.38373" lon="2.4767">
        <ele>501.2</ele>
        <time>2021-09-02T13:59:12Z</time>
      </trkpt>
      <trkpt lat="43.38373" lon="2.47725">
        <ele>498.5</ele>
        <time>2021-09-02T13:59:42Z</time>
      </trkpt>
      <trkpt lat="43.38376" lon="2.47778">
        <ele>495.9</ele>
        <time>2021-09-02T14:00:12Z</time>
      </trkpt>
      <trkpt lat="43.38377" lon="2.47833">
        <ele>490.1</ele>
        <time>2021-09-02T14:00:42Z</time>
      </trkpt>
      <trkpt lat="43.38388" lon="2.47884">
        <ele>485.3</ele>
        <time>2021-09-02T14:01:12Z</time>
      </trkpt>
      <trkpt lat="43.38391" lon="2.47888">
        <ele>485.8</ele>
        <time>2021-09-02T14:01:42Z</time>
      </trkpt>
      <trkpt lat="43.38385" lon="2.47892">
        <ele>482.2</ele>
        <time>2021-09-02T14:02:12Z</time>
      </trkpt>
      <trkpt lat="43.38387" lon="2.47894">
        <ele>482.7</ele>
        <time>2021-09-02T14:02:42Z</time>
      </trkpt>
      <trkpt lat="43.38419" lon="2.47918">
        <ele>489.9</ele>
        <time>2021-09-02T14:03:16Z</time>
      </trkpt>
      <trkpt lat="43.38455" lon="2.47949">
        <ele>487.6</ele>
        <time>2021-09-02T14:03:46Z</time>
      </trkpt>
      <trkpt lat="43.3849" lon="2.47976">
        <ele>487.1</ele>
        <time>2021-09-02T14:04:16Z</time>
      </trkpt>
      <trkpt lat="43.38519" lon="2.48011">
        <ele>482.7</ele>
        <time>2021-09-02T14:04:46Z</time>
      </trkpt>
      <trkpt lat="43.38542" lon="2.48045">
        <ele>478.6</ele>
      </trkpt>
      <trkpt lat="43.38569" lon="2.48064">
        <ele>480.6</ele>
        <time>2021-09-02T14:05:43Z</time>
      </trkpt>
      <trkpt lat="43.38558" lon="2.48076">
        <ele>474.7</ele>
        <time>2021-09-02T14:06:13Z</time>
      </trkpt>
      <trkpt lat="43.38545" lon="2.48084">
        <ele>469</ele>
        <time>2021-09-02T14:06:44Z</time>
      </trkpt>
      <trkpt lat="43.3852" lon="2.48077">
        <ele>463.8</ele>
        <time>2021-09-02T14:07:14Z</time>
      </trkpt>
      <trkpt lat="43.38524" lon="2.48096">
        <ele>461.6</ele>
      </trkpt>
      <trkpt lat="43.38508" lon="2.48093">
        <ele>457.3</ele>
        <time>2021-09-02T14:07:44Z</time>
      </trkpt>
      <trkpt lat="43.38508" lon="2.48129">
        <ele>453.7</ele>
        <time>2021-09-02T14:08:14Z</time>
      </trkpt>
      <trkpt lat="43.38518" lon="2.48139">
        <ele>454.9</ele>
      </trkpt>
      <trkpt lat="43.38525" lon="2.48152">
        <ele>455.1</ele>
        <time>2021-09-02T14:08:44Z</time>
      </trkpt>
      <trkpt lat="43.38523" lon="2.48159">
        <ele>453.9</ele>
        <time>2021-09-02T14:09:14Z</time>
      </trkpt>
      <trkpt lat="43.38524" lon="2.48193">
        <ele>457.8</ele>
        <time>2021-09-02T14:09:44Z</time>
      </trkpt>
      <trkpt lat="43.38512" lon="2.48209">
        <ele>460.2</ele>
        <time>2021-09-02T14:10:14Z</time>
      </trkpt>
      <trkpt lat="43.38489" lon="2.48212">
        <ele>464.6</ele>
        <time>2021-09-02T14:10:44Z</time>
      </trkpt>
      <trkpt lat="43.38475" lon="2.48198">
        <ele>465.2</ele>
        <time>2021-09-02T14:11:14Z</time>
      </trkpt>
      <trkpt lat="43.38452" lon="2.48196">
        <ele>472.3</ele>
      </trkpt>
      <trkpt lat="43.38446" lon="2.48184">
        <ele>470</ele>
        <time>2021-09-02T14:11:44Z</time>
      </trkpt>
      <trkpt lat="43.38423" lon="2.4816">
        <ele>468.7</ele>
        <time>2021-09-02T14:12:14Z</time>
      </trkpt>
      <trkpt lat="43.38412" lon="2.48157">
        <ele>471</ele>
        <time>2021-09-02T14:12:44Z</time>
      </trkpt>
      <trkpt lat="43.38382" lon="2.48147">
        <ele>477.1</ele>
        <time>2021-09-02T14:13:14Z</time>
      </trkpt>
      <trkpt lat="43.38342" lon="2.48135">
        <ele>483.9</ele>
        <time>2021-09-02T14:13:44Z</time>
      </trkpt>
      <trkpt lat="43.38317" lon="2.48118">
        <ele>485.4</ele>
        <time>2021-09-02T14:14:14Z</time>
      </trkpt>
      <trkpt lat="43.38287" lon="2.48096">
        <ele>488</ele>
        <time>2021-09-02T14:14:44Z</time>
      </trkpt>
      <trkpt lat="43.3827" lon="2.48076">
        <ele>487.2</ele>
        <time>2021-09-02T14:15:14Z</time>
      </trkpt>
      <trkpt lat="43.38241" lon="2.48059">
        <ele>491.3</ele>
        <time>2021-09-02T14:15:44Z</time>
      </trkpt>
      <trkpt lat="43.38214" lon="2.4804">
        <ele>493.2</ele>
        <time>2021-09-02T14:16:14Z</time>
      </trkpt>
      <trkpt lat="43.38194" lon="2.47995">
        <ele>485.6</ele>
        <time>2021-09-02T14:16:44Z</time>
      </trkpt>
      <trkpt lat="43.38161" lon="2.47981">
        <ele>492</ele>
        <time>2021-09-02T14:17:14Z</time>
      </trkpt>
      <trkpt lat="43.38127" lon="2.47994">
        <ele>498.9</ele>
        <time>2021-09-02T14:17:44Z</time>
      </trkpt>
      <trkpt lat="43.38092" lon="2.48018">
        <ele>508</ele>
        <time>2021-09-02T14:18:14Z</time>
      </trkpt>
      <trkpt lat="43.38079" lon="2.48021">
        <ele>511.4</ele>
        <time>2021-09-02T14:18:30Z</time>
      </trkpt>
      <trkpt lat="43.3808" lon="2.48022">
        <ele>511.2</ele>
        <time>2021-09-02T14:18:30Z</time>
      </trkpt>
      <trkpt lat="43.38084" lon="2.47994">
        <ele>503.6</ele>
        <time>2021-09-02T14:18:44Z</time>
      </trkpt>
      <trkpt lat="43.38079" lon="2.47939">
        <ele>503.2</ele>
        <time>2021-09-02T14:19:15Z</time>
      </trkpt>
      <trkpt lat="43.38075" lon="2.47887">
        <ele>507.4</ele>
        <time>2021-09-02T14:19:45Z</time>
      </trkpt>
      <trkpt lat="43.38072" lon="2.47855">
        <ele>512.3</ele>
        <time>2021-09-02T14:20:15Z</time>
      </trkpt>
      <trkpt lat="43.38105" lon="2.47821">
        <ele>500.5</ele>
        <time>2021-09-02T14:20:45Z</time>
      </trkpt>
      <trkpt lat="43.38118" lon="2.47782">
        <ele>499.3</ele>
        <time>2021-09-02T14:21:15Z</time>
      </trkpt>
      <trkpt lat="43.38119" lon="2.47739">
        <ele>503</ele>
        <time>2021-09-02T14:21:45Z</time>
      </trkpt>
      <trkpt lat="43.38086" lon="2.4761">
        <ele>517.9</ele>
        <time>2021-09-02T14:23:23Z</time>
      </trkpt>
      <trkpt lat="43.3807" lon="2.47539">
        <ele>519.3</ele>
        <time>2021-09-02T14:24:09Z</time>
      </trkpt>
      <trkpt lat="43.38061" lon="2.47491">
        <ele>516.9</ele>
        <time>2021-09-02T14:24:45Z</time>
      </trkpt>
      <trkpt lat="43.3804" lon="2.47468">
        <ele>522.5</ele>
        <time>2021-09-02T14:25:15Z</time>
      </trkpt>
      <trkpt lat="43.38019" lon="2.47441">
        <ele>527</ele>
        <time>2021-09-02T14:25:45Z</time>
      </trkpt>
      <trkpt lat="43.37988" lon="2.47424">
        <ele>538.5</ele>
        <time>2021-09-02T14:26:15Z</time>
      </trkpt>
      <trkpt lat="43.37957" lon="2.47401">
        <ele>547.6</ele>
        <time>2021-09-02T14:26:45Z</time>
      </trkpt>
      <trkpt lat="43.37937" lon="2.47375">
        <ele>552.6</ele>
        <time>2021-09-02T14:27:15Z</time>
      </trkpt>
      <trkpt lat="43.37926" lon="2.47337">
        <ele>551.7</ele>
        <time>2021-09-02T14:27:45Z</time>
      </trkpt>
      <trkpt lat="43.37917" lon="2.47317">
        <ele>554.4</ele>
        <time>2021-09-02T14:28:15Z</time>
      </trkpt>
      <trkpt lat="43.37907" lon="2.47302">
        <ele>557.1</ele>
        <time>2021-09-02T14:28:30Z</time>
      </trkpt>
      <trkpt lat="43.37907" lon="2.47304">
        <ele>557.4</ele>
        <time>2021-09-02T14:28:31Z</time>
      </trkpt>
      <trkpt lat="43.379" lon="2.47291">
        <ele>558.7</ele>
        <time>2021-09-02T14:28:45Z</time>
      </trkpt>
      <trkpt lat="43.3789" lon="2.47255">
        <ele>557.1</ele>
        <time>2021-09-02T14:29:15Z</time>
      </trkpt>
      <trkpt lat="43.37883" lon="2.4722">
        <ele>552.9</ele>
        <time>2021-09-02T14:29:45Z</time>
      </trkpt>
      <trkpt lat="43.37861" lon="2.47184">
        <ele>551</ele>
      </trkpt>
      <trkpt lat="43.37832" lon="2.47216">
        <ele>568.7</ele>
        <time>2021-09-02T14:30:45Z</time>
      </trkpt>
      <trkpt lat="43.378" lon="2.47241">
        <ele>581.5</ele>
        <time>2021-09-02T14:31:20Z</time>
      </trkpt>
      <trkpt lat="43.3777" lon="2.47252">
        <ele>589.9</ele>
        <time>2021-09-02T14:31:50Z</time>
      </trkpt>
      <trkpt lat="43.37743" lon="2.47261">
        <ele>598</ele>
        <time>2021-09-02T14:32:20Z</time>
      </trkpt>
      <trkpt lat="43.37713" lon="2.47254">
        <ele>601.2</ele>
        <time>2021-09-02T14:32:50Z</time>
      </trkpt>
      <trkpt lat="43.37694" lon="2.47248">
        <ele>602.6</ele>
        <time>2021-09-02T14:33:20Z</time>
      </trkpt>
      <trkpt lat="43.37678" lon="2.47235">
        <ele>601</ele>
        <time>2021-09-02T14:33:50Z</time>
      </trkpt>
      <trkpt lat="43.37646" lon="2.47219">
        <ele>595.5</ele>
        <time>2021-09-02T14:34:20Z</time>
      </trkpt>
      <trkpt lat="43.37614" lon="2.47224">
        <ele>594.3</ele>
        <time>2021-09-02T14:34:50Z</time>
      </trkpt>
      <trkpt lat="43.37584" lon="2.47253">
        <ele>602.2</ele>
        <time>2021-09-02T14:35:20Z</time>
      </trkpt>
      <trkpt lat="43.37555" lon="2.47279">
        <ele>605.6</ele>
        <time>2021-09-02T14:35:50Z</time>
      </trkpt>
      <trkpt lat="43.37528" lon="2.47295">
        <ele>606.1</ele>
        <time>2021-09-02T14:36:20Z</time>
      </trkpt>
      <trkpt lat="43.37522" lon="2.47293">
        <ele>604</ele>
        <time>2021-09-02T14:38:09Z</time>
      </trkpt>
      <trkpt lat="43.37523" lon="2.47295">
        <ele>605</ele>
        <time>2021-09-02T14:38:30Z</time>
      </trkpt>
      <trkpt lat="43.37523" lon="2.47297">
        <ele>605.9</ele>
        <time>2021-09-02T14:38:31Z</time>
      </trkpt>
      <trkpt lat="43.37523" lon="2.47298">
        <ele>606.3</ele>
        <time>2021-09-02T14:38:39Z</time>
      </trkpt>
      <trkpt lat="43.37522" lon="2.47299">
        <ele>606.5</ele>
        <time>2021-09-02T14:39:13Z</time>
      </trkpt>
      <trkpt lat="43.3749" lon="2.4732">
        <ele>610.1</ele>
        <time>2021-09-02T14:39:43Z</time>
      </trkpt>
      <trkpt lat="43.37455" lon="2.47331">
        <ele>611.6</ele>
        <time>2021-09-02T14:40:13Z</time>
      </trkpt>
      <trkpt lat="43.37419" lon="2.47335">
        <ele>610</ele>
        <time>2021-09-02T14:40:43Z</time>
      </trkpt>
      <trkpt lat="43.37384" lon="2.47348">
        <ele>611.3</ele>
        <time>2021-09-02T14:41:13Z</time>
      </trkpt>
      <trkpt lat="43.3735" lon="2.47368">
        <ele>615.7</ele>
        <time>2021-09-02T14:41:43Z</time>
      </trkpt>
      <trkpt lat="43.37315" lon="2.47378">
        <ele>615.9</ele>
        <time>2021-09-02T14:42:13Z</time>
      </trkpt>
      <trkpt lat="43.37281" lon="2.47387">
        <ele>615.9</ele>
        <time>2021-09-02T14:42:43Z</time>
      </trkpt>
      <trkpt lat="43.37243" lon="2.47387">
        <ele>612.8</ele>
        <time>2021-09-02T14:43:13Z</time>
      </trkpt>
      <trkpt lat="43.37199" lon="2.47383">
        <ele>615.1</ele>
      </trkpt>
      <trkpt lat="43.37162" lon="2.47413">
        <ele>622.5</ele>
        <time>2021-09-02T14:44:23Z</time>
      </trkpt>
      <trkpt lat="43.37146" lon="2.47452">
        <ele>631.3</ele>
        <time>2021-09-02T14:44:53Z</time>
      </trkpt>
      <trkpt lat="43.37127" lon="2.4744">
        <ele>632.5</ele>
        <time>2021-09-02T14:45:23Z</time>
      </trkpt>
      <trkpt lat="43.3712" lon="2.47396">
        <ele>629.9</ele>
        <time>2021-09-02T14:45:57Z</time>
      </trkpt>
      <trkpt lat="43.37107" lon="2.4736">
        <ele>631.5</ele>
        <time>2021-09-02T14:46:27Z</time>
      </trkpt>
      <trkpt lat="43.37098" lon="2.47323">
        <ele>633.7</ele>
        <time>2021-09-02T14:46:57Z</time>
      </trkpt>
      <trkpt lat="43.37074" lon="2.47304">
        <ele>637.1</ele>
        <time>2021-09-02T14:47:27Z</time>
      </trkpt>
      <trkpt lat="43.37069" lon="2.47303">
        <ele>636.5</ele>
        <time>2021-09-02T14:47:57Z</time>
      </trkpt>
      <trkpt lat="43.37069" lon="2.47302">
        <ele>636.5</ele>
        <time>2021-09-02T14:48:30Z</time>
      </trkpt>
      <trkpt lat="43.37069" lon="2.47303">
        <ele>636.5</ele>
        <time>2021-09-02T14:48:32Z</time>
      </trkpt>
      <trkpt lat="43.37069" lon="2.47302">
        <ele>636.5</ele>
        <time>2021-09-02T14:49:03Z</time>
      </trkpt>
      <trkpt lat="43.3707" lon="2.47299">
        <ele>636.6</ele>
        <time>2021-09-02T14:49:33Z</time>
      </trkpt>
      <trkpt lat="43.37071" lon="2.47297">
        <ele>636.7</ele>
        <time>2021-09-02T14:50:41Z</time>
      </trkpt>
      <trkpt lat="43.37055" lon="2.47162">
        <ele>627</ele>
        <time>2021-09-02T14:52:06Z</time>
      </trkpt>
      <trkpt lat="43.37048" lon="2.47121">
        <ele>620.6</ele>
        <time>2021-09-02T14:52:36Z</time>
      </trkpt>
      <trkpt lat="43.37027" lon="2.47102">
        <ele>612.8</ele>
        <time>2021-09-02T14:53:07Z</time>
      </trkpt>
      <trkpt lat="43.36997" lon="2.47109">
        <ele>605.8</ele>
        <time>2021-09-02T14:53:37Z</time>
      </trkpt>
      <trkpt lat="43.3697" lon="2.47114">
        <ele>598.6</ele>
        <time>2021-09-02T14:54:08Z</time>
      </trkpt>
      <trkpt lat="43.36951" lon="2.47086">
        <ele>589.3</ele>
        <time>2021-09-02T14:54:38Z</time>
      </trkpt>
      <trkpt lat="43.36962" lon="2.47057">
        <ele>585</ele>
        <time>2021-09-02T14:55:08Z</time>
      </trkpt>
      <trkpt lat="43.36966" lon="2.47033">
        <ele>579.7</ele>
        <time>2021-09-02T14:55:38Z</time>
      </trkpt>
      <trkpt lat="43.36982" lon="2.47">
        <ele>574.7</ele>
        <time>2021-09-02T14:56:08Z</time>
      </trkpt>
      <trkpt lat="43.36991" lon="2.46973">
        <ele>567.7</ele>
        <time>2021-09-02T14:56:38Z</time>
      </trkpt>
      <trkpt lat="43.37006" lon="2.46934">
        <ele>558.9</ele>
        <time>2021-09-02T14:57:08Z</time>
      </trkpt>
      <trkpt lat="43.37024" lon="2.46899">
        <ele>553.1</ele>
        <time>2021-09-02T14:57:38Z</time>
      </trkpt>
      <trkpt lat="43.37036" lon="2.46865">
        <ele>545.1</ele>
        <time>2021-09-02T14:58:11Z</time>
      </trkpt>
      <trkpt lat="43.37046" lon="2.46834">
        <ele>537.8</ele>
        <time>2021-09-02T14:58:30Z</time>
      </trkpt>
      <trkpt lat="43.37047" lon="2.46836">
        <ele>538.9</ele>
        <time>2021-09-02T14:58:42Z</time>
      </trkpt>
      <trkpt lat="43.37047" lon="2.46836">
        <ele>538.9</ele>
        <time>2021-09-02T14:58:43Z</time>
      </trkpt>
      <trkpt lat="43.3708" lon="2.46764">
        <ele>527.3</ele>
        <time>2021-09-02T14:59:36Z</time>
      </trkpt>
      <trkpt lat="43.37095" lon="2.46722">
        <ele>516</ele>
        <time>2021-09-02T15:00:08Z</time>
      </trkpt>
      <trkpt lat="43.37105" lon="2.46702">
        <ele>509.9</ele>
        <time>2021-09-02T15:00:38Z</time>
      </trkpt>
      <trkpt lat="43.37138" lon="2.46706">
        <ele>511.7</ele>
        <time>2021-09-02T15:01:08Z</time>
      </trkpt>
      <trkpt lat="43.37169" lon="2.46701">
        <ele>509.9</ele>
        <time>2021-09-02T15:01:38Z</time>
      </trkpt>
      <trkpt lat="43.37197" lon="2.46695">
        <ele>504</ele>
        <time>2021-09-02T15:02:08Z</time>
      </trkpt>
      <trkpt lat="43.37214" lon="2.46695">
        <ele>501.8</ele>
        <time>2021-09-02T15:02:38Z</time>
      </trkpt>
      <trkpt lat="43.37249" lon="2.46682">
        <ele>491.8</ele>
        <time>2021-09-02T15:03:08Z</time>
      </trkpt>
      <trkpt lat="43.37237" lon="2.46644">
        <ele>480.4</ele>
        <time>2021-09-02T15:03:38Z</time>
      </trkpt>
      <trkpt lat="43.37221" lon="2.46609">
        <ele>472.1</ele>
        <time>2021-09-02T15:04:08Z</time>
      </trkpt>
      <trkpt lat="43.37206" lon="2.46568">
        <ele>461.7</ele>
        <time>2021-09-02T15:04:38Z</time>
      </trkpt>
      <trkpt lat="43.37206" lon="2.46525">
        <ele>450.7</ele>
        <time>2021-09-02T15:05:08Z</time>
      </trkpt>
      <trkpt lat="43.37237" lon="2.46452">
        <ele>429.7</ele>
        <time>2021-09-02T15:06:18Z</time>
      </trkpt>
      <trkpt lat="43.37239" lon="2.46405">
        <ele>417.7</ele>
        <time>2021-09-02T15:06:48Z</time>
      </trkpt>
      <trkpt lat="43.37247" lon="2.46363">
        <ele>404.9</ele>
        <time>2021-09-02T15:07:18Z</time>
      </trkpt>
      <trkpt lat="43.37263" lon="2.46334">
        <ele>393.2</ele>
        <time>2021-09-02T15:07:48Z</time>
      </trkpt>
      <trkpt lat="43.37273" lon="2.4631">
        <ele>383.7</ele>
        <time>2021-09-02T15:08:18Z</time>
      </trkpt>
      <trkpt lat="43.37262" lon="2.46274">
        <ele>375.1</ele>
        <time>2021-09-02T15:08:30Z</time>
      </trkpt>
      <trkpt lat="43.37262" lon="2.46275">
        <ele>375.4</ele>
        <time>2021-09-02T15:08:43Z</time>
      </trkpt>
      <trkpt lat="43.37259" lon="2.4627">
        <ele>374.4</ele>
        <time>2021-09-02T15:08:48Z</time>
      </trkpt>
      <trkpt lat="43.37269" lon="2.46266">
        <ele>371.2</ele>
        <time>2021-09-02T15:09:18Z</time>
      </trkpt>
      <trkpt lat="43.37269" lon="2.46234">
        <ele>362.9</ele>
        <time>2021-09-02T15:09:48Z</time>
      </trkpt>
      <trkpt lat="43.37262" lon="2.46199">
        <ele>355.5</ele>
        <time>2021-09-02T15:10:18Z</time>
      </trkpt>
      <trkpt lat="43.3723" lon="2.46183">
        <ele>352.1</ele>
        <time>2021-09-02T15:10:48Z</time>
      </trkpt>
      <trkpt lat="43.37205" lon="2.46171">
        <ele>348.9</ele>
        <time>2021-09-02T15:11:18Z</time>
      </trkpt>
      <trkpt lat="43.37164" lon="2.46174">
        <ele>350.7</ele>
        <time>2021-09-02T15:11:48Z</time>
      </trkpt>
      <trkpt lat="43.37108" lon="2.46156">
        <ele>349.9</ele>
        <time>2021-09-02T15:12:50Z</time>
      </trkpt>
      <trkpt lat="43.3707" lon="2.46144">
        <ele>349.1</ele>
        <time>2021-09-02T15:13:21Z</time>
      </trkpt>
      <trkpt lat="43.37064" lon="2.46146">
        <ele>348.8</ele>
        <time>2021-09-02T15:14:27Z</time>
      </trkpt>
      <trkpt lat="43.37064" lon="2.46129">
        <ele>347.7</ele>
        <time>2021-09-02T15:14:58Z</time>
      </trkpt>
      <trkpt lat="43.37064" lon="2.46115">
        <ele>346.9</ele>
        <time>2021-09-02T15:15:43Z</time>
      </trkpt>
      <trkpt lat="43.3703" lon="2.46103">
        <ele>342.9</ele>
        <time>2021-09-02T15:16:16Z</time>
      </trkpt>
      <trkpt lat="43.37019" lon="2.46098">
        <ele>341.4</ele>
        <time>2021-09-02T15:17:31Z</time>
      </trkpt>
      <trkpt lat="43.37008" lon="2.46096">
        <ele>340.2</ele>
        <time>2021-09-02T15:18:30Z</time>
      </trkpt>
      <trkpt lat="43.37008" lon="2.46096">
        <ele>340.2</ele>
        <time>2021-09-02T15:18:43Z</time>
      </trkpt>
      <trkpt lat="43.37008" lon="2.46097">
        <ele>340.3</ele>
        <time>2021-09-02T15:18:45Z</time>
      </trkpt>
      <trkpt lat="43.37009" lon="2.46098">
        <ele>340.5</ele>
        <time>2021-09-02T15:19:52Z</time>
      </trkpt>
      <trkpt lat="43.37014" lon="2.46099">
        <ele>341</ele>
        <time>2021-09-02T15:20:22Z</time>
      </trkpt>
      <trkpt lat="43.37011" lon="2.46099">
        <ele>340.8</ele>
        <time>2021-09-02T15:22:53Z</time>
      </trkpt>
      <trkpt lat="43.37016" lon="2.46101">
        <ele>341.4</ele>
        <time>2021-09-02T15:26:18Z</time>
      </trkpt>
      <trkpt lat="43.37013" lon="2.461">
        <ele>341</ele>
        <time>2021-09-02T15:28:21Z</time>
      </trkpt>
      <trkpt lat="43.37011" lon="2.461">
        <ele>340.9</ele>
        <time>2021-09-02T15:28:30Z</time>
      </trkpt>
      <trkpt lat="43.37011" lon="2.46102">
        <ele>341.1</ele>
        <time>2021-09-02T15:28:44Z</time>
      </trkpt>
      <trkpt lat="43.37013" lon="2.46101">
        <ele>341.1</ele>
        <time>2021-09-02T15:28:51Z</time>
      </trkpt>
      <trkpt lat="43.37016" lon="2.46099">
        <ele>341.2</ele>
        <time>2021-09-02T15:29:51Z</time>
      </trkpt>
      <trkpt lat="43.37017" lon="2.46098">
        <ele>341.2</ele>
        <time>2021-09-02T15:30:25Z</time>
      </trkpt>
      <trkpt lat="43.36973" lon="2.46088">
        <ele>336.7</ele>
        <time>2021-09-02T15:31:18Z</time>
      </trkpt>
      <trkpt lat="43.36935" lon="2.46066">
        <ele>334.8</ele>
        <time>2021-09-02T15:31:48Z</time>
      </trkpt>
      <trkpt lat="43.36902" lon="2.46036">
        <ele>336.5</ele>
        <time>2021-09-02T15:32:20Z</time>
      </trkpt>
      <trkpt lat="43.36885" lon="2.46015">
        <ele>339.6</ele>
      </trkpt>
      <trkpt lat="43.36887" lon="2.45995">
        <ele>338.6</ele>
        <time>2021-09-02T15:32:50Z</time>
      </trkpt>
      <trkpt lat="43.36905" lon="2.45931">
        <ele>337</ele>
        <time>2021-09-02T15:33:28Z</time>
      </trkpt>
      <trkpt lat="43.36926" lon="2.45883">
        <ele>341.8</ele>
        <time>2021-09-02T15:33:58Z</time>
      </trkpt>
      <trkpt lat="43.36935" lon="2.45832">
        <ele>347.6</ele>
        <time>2021-09-02T15:34:28Z</time>
      </trkpt>
      <trkpt lat="43.36904" lon="2.45801">
        <ele>344.3</ele>
      </trkpt>
      <trkpt lat="43.36866" lon="2.45801">
        <ele>338.8</ele>
        <time>2021-09-02T15:35:22Z</time>
      </trkpt>
      <trkpt lat="43.36834" lon="2.45787">
        <ele>337</ele>
        <time>2021-09-02T15:35:54Z</time>
      </trkpt>
      <trkpt lat="43.36792" lon="2.45788">
        <ele>345.1</ele>
        <time>2021-09-02T15:36:24Z</time>
      </trkpt>
      <trkpt lat="43.36763" lon="2.45824">
        <ele>336.7</ele>
        <time>2021-09-02T15:36:54Z</time>
      </trkpt>
      <trkpt lat="43.36726" lon="2.45863">
        <ele>337.8</ele>
        <time>2021-09-02T15:37:27Z</time>
      </trkpt>
      <trkpt lat="43.36685" lon="2.45889">
        <ele>337.4</ele>
        <time>2021-09-02T15:38:02Z</time>
      </trkpt>
      <trkpt lat="43.36648" lon="2.45907">
        <ele>336.1</ele>
        <time>2021-09-02T15:38:32Z</time>
      </trkpt>
      <trkpt lat="43.36634" lon="2.45918">
        <ele>335.4</ele>
        <time>2021-09-02T15:38:45Z</time>
      </trkpt>
      <trkpt lat="43.36633" lon="2.45916">
        <ele>335.9</ele>
        <time>2021-09-02T15:38:45Z</time>
      </trkpt>
      <trkpt lat="43.36566" lon="2.45962">
        <ele>339.2</ele>
        <time>2021-09-02T15:39:38Z</time>
      </trkpt>
      <trkpt lat="43.36525" lon="2.46006">
        <ele>337.6</ele>
        <time>2021-09-02T15:40:13Z</time>
      </trkpt>
      <trkpt lat="43.36491" lon="2.46044">
        <ele>334.3</ele>
        <time>2021-09-02T15:40:45Z</time>
      </trkpt>
      <trkpt lat="43.36472" lon="2.46095">
        <ele>326.7</ele>
        <time>2021-09-02T15:41:16Z</time>
      </trkpt>
      <trkpt lat="43.36438" lon="2.46121">
        <ele>325.5</ele>
        <time>2021-09-02T15:41:46Z</time>
      </trkpt>
      <trkpt lat="43.36394" lon="2.46113">
        <ele>324</ele>
        <time>2021-09-02T15:42:20Z</time>
      </trkpt>
      <trkpt lat="43.36357" lon="2.46089">
        <ele>321</ele>
        <time>2021-09-02T15:42:50Z</time>
      </trkpt>
      <trkpt lat="43.36307" lon="2.46085">
        <ele>314.9</ele>
        <time>2021-09-02T15:43:30Z</time>
      </trkpt>
      <trkpt lat="43.36293" lon="2.46068">
        <ele>314.8</ele>
        <time>2021-09-02T15:45:13Z</time>
      </trkpt>
      <trkpt lat="43.3629" lon="2.4607">
        <ele>314.4</ele>
        <time>2021-09-02T15:45:15Z</time>
      </trkpt>
      <trkpt lat="43.3629" lon="2.46071">
        <ele>314.3</ele>
        <time>2021-09-02T15:45:24Z</time>
      </trkpt>
    </trkseg>
  </trk>
</gpx>